Observation data for Hackberry on 05/23/2020      Previous  Date  Next       Current Mesonet Observations  Soil Data  Daily Summary Page  Observations in Plain Language
KHA3 230500Z 11015KT 20/16 A2976 RMK A01 T02030159  RH  076%=      5-min Rain = 0
KHA3 230501Z 10015KT 20/16 A2976 RMK A01 T02020159  RH  076%=      5-min Rain = 0
KHA3 230502Z 10015KT 20/16 A2976 RMK A01 T02020159  RH  076%=      5-min Rain = 0
KHA3 230503Z 10015G20KT 20/16 A2977 RMK A01 T02020159  RH  076%=      5-min Rain = 0
KHA3 230504Z 11014G20KT 20/16 A2977 RMK A01 T02020159  RH  077%=      5-min Rain = 0
KHA3 230505Z 11016KT 20/16 A2977 RMK A01 T02010159  RH  077%=      5-min Rain = 0
KHA3 230506Z 11016KT 20/16 A2977 RMK A01 T02010160  RH  077%=      5-min Rain = 0
KHA3 230507Z 10014KT 20/16 A2977 RMK A01 T02010160  RH  077%=      5-min Rain = 0
KHA3 230508Z 10015KT 20/16 A2977 RMK A01 T02010161  RH  077%=      5-min Rain = 0
KHA3 230509Z 10018G23KT 20/16 A2977 RMK A01 T02010161  RH  078%=      5-min Rain = 0
KHA3 230510Z 10017G22KT 20/16 A2977 RMK A01 T02010162  RH  078%=      5-min Rain = 0
KHA3 230511Z 10015KT 20/16 A2977 RMK A01 T02010162  RH  078%=      5-min Rain = 0
KHA3 230512Z 10014KT 20/16 A2977 RMK A01 T02000162  RH  079%=      5-min Rain = 0
KHA3 230513Z 10015KT 20/16 A2977 RMK A01 T02000162  RH  079%=      5-min Rain = 0
KHA3 230514Z 10015KT 20/16 A2977 RMK A01 T02000163  RH  079%=      5-min Rain = 0
KHA3 230515Z 10014KT 20/16 A2976 RMK A01 T01990163  RH  080%=      5-min Rain = 0
KHA3 230516Z 10014KT 20/16 A2976 RMK A01 T01990163  RH  080%=      5-min Rain = 0
KHA3 230517Z 10013KT 20/16 A2976 RMK A01 T01980163  RH  080%=      5-min Rain = 0
KHA3 230518Z 10011KT 20/16 A2976 RMK A01 T01980163  RH  081%=      5-min Rain = 0
KHA3 230519Z 10012KT 20/16 A2976 RMK A01 T01980164  RH  081%=      5-min Rain = 0
KHA3 230520Z 10015KT 20/16 A2976 RMK A01 T01970164  RH  081%=      5-min Rain = 0
KHA3 230521Z 10015KT 20/16 A2977 RMK A01 T01970164  RH  082%=      5-min Rain = 0
KHA3 230522Z 10014KT 20/16 A2977 RMK A01 T01960164  RH  082%=      5-min Rain = 0
KHA3 230523Z 10011KT 20/17 A2977 RMK A01 T01960165  RH  082%=      5-min Rain = 0
KHA3 230524Z 10012KT 20/17 A2976 RMK A01 T01960165  RH  082%=      5-min Rain = 0
KHA3 230525Z 09012KT 20/17 A2976 RMK A01 T01960165  RH  083%=      5-min Rain = 0
KHA3 230526Z 09015KT 20/17 A2976 RMK A01 T01950166  RH  083%=      5-min Rain = 0
KHA3 230527Z 10014KT 20/17 A2976 RMK A01 T01950167  RH  083%=      5-min Rain = 0
KHA3 230528Z 10012KT 20/17 A2976 RMK A01 T01950167  RH  084%=      5-min Rain = 0
KHA3 230529Z 10012KT 19/17 A2976 RMK A01 T01940167  RH  084%=      5-min Rain = 0
KHA3 230530Z 10013KT 19/17 A2976 RMK A01 T01940167  RH  084%=      5-min Rain = 0
KHA3 230531Z 09012KT 19/17 A2976 RMK A01 T01940167  RH  085%=      5-min Rain = 0
KHA3 230532Z 09013KT 19/17 A2976 RMK A01 T01940167  RH  085%=      5-min Rain = 0
KHA3 230533Z 09012KT 19/17 A2976 RMK A01 T01930167  RH  085%=      5-min Rain = 0
KHA3 230534Z 10011KT 19/17 A2976 RMK A01 T01930168  RH  085%=      5-min Rain = 0
KHA3 230535Z 10014KT 19/17 A2976 RMK A01 T01930168  RH  085%=      5-min Rain = 0
KHA3 230536Z 10014KT 19/17 A2976 RMK A01 T01930168  RH  086%=      5-min Rain = 0
KHA3 230537Z 10014KT 19/17 A2976 RMK A01 T01930168  RH  086%=      5-min Rain = 0
KHA3 230538Z 09013KT 19/17 A2976 RMK A01 T01920168  RH  086%=      5-min Rain = 0
KHA3 230539Z 09013KT 19/17 A2976 RMK A01 T01920168  RH  086%=      5-min Rain = 0
KHA3 230540Z 09011G16KT 19/17 A2976 RMK A01 T01920168  RH  086%=      5-min Rain = 0
KHA3 230541Z 09015KT 19/17 A2976 RMK A01 T01920169  RH  087%=      5-min Rain = 0
KHA3 230542Z 09013KT 19/17 A2976 RMK A01 T01910169  RH  087%=      5-min Rain = 0
KHA3 230543Z 09012KT 19/17 A2976 RMK A01 T01910169  RH  087%=      5-min Rain = 0
KHA3 230544Z 09011KT 19/17 A2976 RMK A01 T01910169  RH  087%=      5-min Rain = 0
KHA3 230545Z 09013KT 19/17 A2976 RMK A01 T01900169  RH  087%=      5-min Rain = 0
KHA3 230546Z 09012KT 19/17 A2976 RMK A01 T01900169  RH  087%=      5-min Rain = 0
KHA3 230547Z 09014KT 19/17 A2976 RMK A01 T01910169  RH  087%=      5-min Rain = 0
KHA3 230548Z 09013KT 19/17 A2976 RMK A01 T01900169  RH  088%=      5-min Rain = 0
KHA3 230549Z 09012KT 19/17 A2976 RMK A01 T01900169  RH  088%=      5-min Rain = 0
KHA3 230550Z 09012KT 19/17 A2976 RMK A01 T01900169  RH  088%=      5-min Rain = 0
KHA3 230551Z 09014KT 19/17 A2976 RMK A01 T01890169  RH  088%=      5-min Rain = 0
KHA3 230552Z 09015KT 19/17 A2976 RMK A01 T01890170  RH  088%=      5-min Rain = 0
KHA3 230553Z 10014KT 19/17 A2976 RMK A01 T01890170  RH  088%=      5-min Rain = 0
KHA3 230554Z 09014KT 19/17 A2976 RMK A01 T01890170  RH  088%=      5-min Rain = 0
KHA3 230555Z 09015KT 19/17 A2976 RMK A01 T01890170  RH  089%=      5-min Rain = 0
KHA3 230556Z 10014KT 19/17 A2976 RMK A01 T01890170  RH  089%=      5-min Rain = 0
KHA3 230557Z 10014KT 19/17 A2976 RMK A01 T01890170  RH  089%=      5-min Rain = 0
KHA3 230558Z 10013KT 19/17 A2976 RMK A01 T01880170  RH  089%=      5-min Rain = 0
KHA3 230559Z 10010KT 19/17 A2976 RMK A01 T01880170  RH  089%=      5-min Rain = 0
KHA3 230600Z 10015KT 19/17 A2976 RMK A01 T01880171  RH  090%=      5-min Rain = 0
KHA3 230601Z 10014KT 19/17 A2976 RMK A01 T01880171  RH  090%=      5-min Rain = 0
KHA3 230602Z 10014KT 19/17 A2976 RMK A01 T01880172  RH  090%=      5-min Rain = 0
KHA3 230603Z 10013KT 19/17 A2976 RMK A01 T01880172  RH  090%=      5-min Rain = 0
KHA3 230604Z 11016G21KT 19/17 A2976 RMK A01 T01880172  RH  091%=      5-min Rain = 0
KHA3 230605Z 10016KT 19/17 A2976 RMK A01 T01880173  RH  091%=      5-min Rain = 0
KHA3 230606Z 10017KT 19/17 A2976 RMK A01 T01880173  RH  091%=      5-min Rain = 0
KHA3 230607Z 10015KT 19/17 A2976 RMK A01 T01870173  RH  092%=      5-min Rain = 0
KHA3 230608Z 10016KT 19/17 A2976 RMK A01 T01870174  RH  092%=      5-min Rain = 0
KHA3 230609Z 10018KT 19/17 A2976 RMK A01 T01870174  RH  092%=      5-min Rain = 0
KHA3 230610Z 10016KT 19/17 A2976 RMK A01 T01870174  RH  092%=      5-min Rain = 0
KHA3 230611Z 10016KT 19/17 A2976 RMK A01 T01870174  RH  092%=      5-min Rain = 0
KHA3 230612Z 10016G21KT 19/17 A2976 RMK A01 T01860174  RH  093%=      5-min Rain = 0
KHA3 230613Z 11016KT 19/17 A2976 RMK A01 T01860174  RH  093%=      5-min Rain = 0
KHA3 230614Z 10017KT 19/18 A2976 RMK A01 T01860175  RH  093%=      5-min Rain = 0
KHA3 230615Z 10015KT 19/18 A2976 RMK A01 T01860175  RH  093%=      5-min Rain = 0
KHA3 230616Z 11017KT 19/18 A2976 RMK A01 T01860175  RH  093%=      5-min Rain = 0
KHA3 230617Z 10014G19KT 19/18 A2976 RMK A01 T01860175  RH  093%=      5-min Rain = 0
KHA3 230618Z 10014KT 19/18 A2976 RMK A01 T01860175  RH  093%=      5-min Rain = 0
KHA3 230619Z 11014KT 19/18 A2976 RMK A01 T01860175  RH  093%=      5-min Rain = 0
KHA3 230620Z 11013KT 19/17 A2977 RMK A01 T01850174  RH  093%=      5-min Rain = 0
KHA3 230621Z 10014KT 19/17 A2977 RMK A01 T01850174  RH  093%=      5-min Rain = 0
KHA3 230622Z 11013KT 19/18 A2977 RMK A01 T01860175  RH  093%=      5-min Rain = 0
KHA3 230623Z 11016KT 19/17 A2977 RMK A01 T01860174  RH  093%=      5-min Rain = 0
KHA3 230624Z 11014KT 19/18 A2977 RMK A01 T01860175  RH  093%=      5-min Rain = 0
KHA3 230625Z 10013KT 19/17 A2977 RMK A01 T01860174  RH  093%=      5-min Rain = 0
KHA3 230626Z 11012KT 19/18 A2977 RMK A01 T01860175  RH  093%=      5-min Rain = 0
KHA3 230627Z 11013KT 19/17 A2977 RMK A01 T01860174  RH  093%=      5-min Rain = 0
KHA3 230628Z 11013KT 19/17 A2977 RMK A01 T01860174  RH  093%=      5-min Rain = 0
KHA3 230629Z 10012KT 19/17 A2977 RMK A01 T01860174  RH  093%=      5-min Rain = 0
KHA3 230630Z 10012KT 19/17 A2977 RMK A01 T01860174  RH  093%=      5-min Rain = 0
KHA3 230631Z 10013KT 19/17 A2977 RMK A01 T01860174  RH  093%=      5-min Rain = 0
KHA3 230632Z 10012KT 19/17 A2977 RMK A01 T01860174  RH  093%=      5-min Rain = 0
KHA3 230633Z 11013KT 19/18 A2977 RMK A01 T01860175  RH  093%=      5-min Rain = 0
KHA3 230634Z 10013KT 19/17 A2977 RMK A01 T01860174  RH  093%=      5-min Rain = 0
KHA3 230635Z 10014KT 19/17 A2977 RMK A01 T01860174  RH  093%=      5-min Rain = 0
KHA3 230636Z 10015KT 19/17 A2978 RMK A01 T01860174  RH  093%=      5-min Rain = 0
KHA3 230637Z 10015KT 19/17 A2978 RMK A01 T01860174  RH  092%=      5-min Rain = 0
KHA3 230638Z 10013KT 19/17 A2978 RMK A01 T01870174  RH  092%=      5-min Rain = 0
KHA3 230639Z 10016G21KT 19/17 A2978 RMK A01 T01870174  RH  092%=      5-min Rain = 0
KHA3 230640Z 10016KT 19/18 A2978 RMK A01 T01870175  RH  092%=      5-min Rain = 0
KHA3 230641Z 10014KT 19/17 A2978 RMK A01 T01870174  RH  092%=      5-min Rain = 0
KHA3 230642Z 10016KT 19/17 A2979 RMK A01 T01870174  RH  092%=      5-min Rain = 0
KHA3 230643Z 10017G22KT 19/17 A2978 RMK A01 T01870174  RH  092%=      5-min Rain = 0
KHA3 230644Z 10016KT 19/17 A2979 RMK A01 T01870174  RH  092%=      5-min Rain = 0
KHA3 230645Z 10016G22KT 19/17 A2979 RMK A01 T01870174  RH  092%=      5-min Rain = 0
KHA3 230646Z 10016KT 19/17 A2979 RMK A01 T01870174  RH  092%=      5-min Rain = 0
KHA3 230647Z 10016G21KT 19/17 A2979 RMK A01 T01880174  RH  092%=      5-min Rain = 0
KHA3 230648Z 10017KT 19/17 A2978 RMK A01 T01880174  RH  092%=      5-min Rain = 0
KHA3 230649Z 10017KT 19/17 A2979 RMK A01 T01880173  RH  091%=      5-min Rain = 0
KHA3 230650Z 11016KT 19/17 A2979 RMK A01 T01880174  RH  091%=      5-min Rain = 0
KHA3 230651Z 10017KT 19/17 A2979 RMK A01 T01880174  RH  091%=      5-min Rain = 0
KHA3 230652Z 10016KT 19/17 A2979 RMK A01 T01880174  RH  091%=      5-min Rain = 0
KHA3 230653Z 10017KT 19/17 A2979 RMK A01 T01880174  RH  091%=      5-min Rain = 0
KHA3 230654Z 10018KT 19/17 A2979 RMK A01 T01880174  RH  091%=      5-min Rain = 0
KHA3 230655Z 10019KT 19/17 A2979 RMK A01 T01880174  RH  091%=      5-min Rain = 0
KHA3 230656Z 10017KT 19/17 A2979 RMK A01 T01880173  RH  091%=      5-min Rain = 0
KHA3 230657Z 10018G23KT 19/17 A2979 RMK A01 T01880174  RH  091%=      5-min Rain = 0
KHA3 230658Z 10017KT 19/17 A2979 RMK A01 T01880173  RH  091%=      5-min Rain = 0
KHA3 230659Z 10017KT 19/17 A2979 RMK A01 T01880173  RH  091%=      5-min Rain = 0
KHA3 230700Z 10017KT 19/17 A2978 RMK A01 T01880173  RH  091%=      5-min Rain = 0
KHA3 230701Z 11015KT 19/17 A2978 RMK A01 T01880173  RH  091%=      5-min Rain = 0
KHA3 230702Z 10017G22KT 19/17 A2978 RMK A01 T01880173  RH  091%=      5-min Rain = 0
KHA3 230703Z 11020KT 19/17 A2978 RMK A01 T01890173  RH  090%=      5-min Rain = 0
KHA3 230704Z 11018KT 19/17 A2978 RMK A01 T01890172  RH  090%=      5-min Rain = 0
KHA3 230705Z 11018KT 19/17 A2978 RMK A01 T01890172  RH  090%=      5-min Rain = 0
KHA3 230706Z 11017KT 19/17 A2978 RMK A01 T01890172  RH  090%=      5-min Rain = 0
KHA3 230707Z 11016KT 19/17 A2978 RMK A01 T01890172  RH  089%=      5-min Rain = 0
KHA3 230708Z 11017KT 19/17 A2978 RMK A01 T01900172  RH  089%=      5-min Rain = 0
KHA3 230709Z 11016KT 19/17 A2978 RMK A01 T01900171  RH  089%=      5-min Rain = 0
KHA3 230710Z 11017KT 19/17 A2978 RMK A01 T01900171  RH  089%=      5-min Rain = 0
KHA3 230711Z 12017KT 19/17 A2978 RMK A01 T01910171  RH  089%=      5-min Rain = 0
KHA3 230712Z 12015KT 19/17 A2978 RMK A01 T01910171  RH  088%=      5-min Rain = 0
KHA3 230713Z 12015G21KT 19/17 A2978 RMK A01 T01910171  RH  088%=      5-min Rain = 0
KHA3 230714Z 12017KT 19/17 A2978 RMK A01 T01910171  RH  088%=      5-min Rain = 0
KHA3 230715Z 12015KT 19/17 A2978 RMK A01 T01910171  RH  088%=      5-min Rain = 0
KHA3 230716Z 11016G21KT 19/17 A2978 RMK A01 T01910171  RH  088%=      5-min Rain = 0
KHA3 230717Z 12015KT 19/17 A2978 RMK A01 T01910171  RH  088%=      5-min Rain = 0
KHA3 230718Z 12013KT 19/17 A2978 RMK A01 T01910171  RH  088%=      5-min Rain = 0
KHA3 230719Z 12016KT 19/17 A2977 RMK A01 T01910171  RH  088%=      5-min Rain = 0
KHA3 230720Z 12015KT 19/17 A2977 RMK A01 T01920171  RH  088%=      5-min Rain = 0
KHA3 230721Z 13013KT 19/17 A2977 RMK A01 T01920171  RH  088%=      5-min Rain = 0
KHA3 230722Z 13012KT 19/17 A2977 RMK A01 T01920171  RH  088%=      5-min Rain = 0
KHA3 230723Z 12012KT 19/17 A2977 RMK A01 T01920171  RH  087%=      5-min Rain = 0
KHA3 230724Z 12015KT 19/17 A2977 RMK A01 T01920171  RH  088%=      5-min Rain = 0
KHA3 230725Z 13014KT 19/17 A2977 RMK A01 T01920171  RH  088%=      5-min Rain = 0
KHA3 230726Z 13016KT 19/17 A2977 RMK A01 T01920171  RH  088%=      5-min Rain = 0
KHA3 230727Z 12016KT 19/17 A2977 RMK A01 T01920171  RH  087%=      5-min Rain = 0
KHA3 230728Z 13015KT 19/17 A2977 RMK A01 T01920170  RH  087%=      5-min Rain = 0
KHA3 230729Z 12013KT 19/17 A2977 RMK A01 T01920170  RH  087%=      5-min Rain = 0
KHA3 230730Z 13015KT 19/17 A2977 RMK A01 T01920171  RH  087%=      5-min Rain = 0
KHA3 230731Z 13014KT 19/17 A2978 RMK A01 T01920170  RH  087%=      5-min Rain = 0
KHA3 230732Z 13014G21KT 19/17 A2978 RMK A01 T01920170  RH  087%=      5-min Rain = 0
KHA3 230733Z 13017KT 19/17 A2978 RMK A01 T01920170  RH  087%=      5-min Rain = 0
KHA3 230734Z 13014KT 19/17 A2978 RMK A01 T01920170  RH  087%=      5-min Rain = 0
KHA3 230735Z 12014KT 19/17 A2978 RMK A01 T01920170  RH  087%=      5-min Rain = 0
KHA3 230736Z 13016KT 19/17 A2978 RMK A01 T01920170  RH  087%=      5-min Rain = 0
KHA3 230737Z 12014G19KT 19/17 A2978 RMK A01 T01920171  RH  087%=      5-min Rain = 0
KHA3 230738Z 13016KT 19/17 A2978 RMK A01 T01920170  RH  087%=      5-min Rain = 0
KHA3 230739Z 12015KT 19/17 A2978 RMK A01 T01920170  RH  087%=      5-min Rain = 0
KHA3 230740Z 12018KT 19/17 A2978 RMK A01 T01920170  RH  087%=      5-min Rain = 0
KHA3 230741Z 12014KT 19/17 A2979 RMK A01 T01920170  RH  087%=      5-min Rain = 0
KHA3 230742Z 13018KT 19/17 A2979 RMK A01 T01920170  RH  087%=      5-min Rain = 0
KHA3 230743Z 13016KT 19/17 A2979 RMK A01 T01920170  RH  087%=      5-min Rain = 0
KHA3 230744Z 13015KT 19/17 A2979 RMK A01 T01920170  RH  087%=      5-min Rain = 0
KHA3 230745Z 12017KT 19/17 A2979 RMK A01 T01920170  RH  087%=      5-min Rain = 0
KHA3 230746Z 12016KT 19/17 A2979 RMK A01 T01920170  RH  087%=      5-min Rain = 0
KHA3 230747Z 12017KT 19/17 A2979 RMK A01 T01920170  RH  087%=      5-min Rain = 0
KHA3 230748Z 12017G22KT 19/17 A2978 RMK A01 T01920170  RH  087%=      5-min Rain = 0
KHA3 230749Z 12017KT 19/17 A2979 RMK A01 T01920169  RH  087%=      5-min Rain = 0
KHA3 230750Z 12016KT 19/17 A2979 RMK A01 T01920169  RH  087%=      5-min Rain = 0
KHA3 230751Z 12018KT 19/17 A2979 RMK A01 T01920169  RH  087%=      5-min Rain = 0
KHA3 230752Z 11016KT 19/17 A2979 RMK A01 T01920169  RH  087%=      5-min Rain = 0
KHA3 230753Z 11018KT 19/17 A2979 RMK A01 T01920169  RH  087%=      5-min Rain = 0
KHA3 230754Z 11015KT 19/17 A2979 RMK A01 T01920169  RH  087%=      5-min Rain = 0
KHA3 230755Z 12019G24KT 19/17 A2979 RMK A01 T01920169  RH  087%=      5-min Rain = 0
KHA3 230756Z 11019KT 19/17 A2979 RMK A01 T01920169  RH  087%=      5-min Rain = 0
KHA3 230757Z 11019KT 19/17 A2979 RMK A01 T01920169  RH  087%=      5-min Rain = 0
KHA3 230758Z 11016KT 19/17 A2979 RMK A01 T01920169  RH  087%=      5-min Rain = 0
KHA3 230759Z 12018KT 19/17 A298 RMK A01 T01920169  RH  087%=      5-min Rain = 0
KHA3 230800Z 11018G25KT 19/17 A298 RMK A01 T01920169  RH  087%=      5-min Rain = 0
KHA3 230801Z 11019KT 19/17 A298 RMK A01 T01910169  RH  087%=      5-min Rain = 0
KHA3 230802Z 11021KT 19/17 A298 RMK A01 T01910169  RH  087%=      5-min Rain = 0
KHA3 230803Z 11021KT 19/17 A298 RMK A01 T01920168  RH  086%=      5-min Rain = 0
KHA3 230804Z 11022KT 19/17 A298 RMK A01 T01920168  RH  086%=      5-min Rain = 0
KHA3 230805Z 11022G27KT 19/17 A298 RMK A01 T01920168  RH  086%=      5-min Rain = 0
KHA3 230806Z 11016KT 19/17 A298 RMK A01 T01920168  RH  086%=      5-min Rain = 0
KHA3 230807Z 11021KT 19/17 A298 RMK A01 T01920169  RH  086%=      5-min Rain = 0
KHA3 230808Z 11018KT 19/17 A298 RMK A01 T01920169  RH  086%=      5-min Rain = 0
KHA3 230809Z 10016KT 19/17 A298 RMK A01 T01920169  RH  087%=      5-min Rain = 0
KHA3 230810Z 11016KT 19/17 A298 RMK A01 T01910169  RH  087%=      5-min Rain = 0
KHA3 230811Z 11017G22KT 19/17 A298 RMK A01 T01910168  RH  087%=      5-min Rain = 0
KHA3 230812Z 11020KT 19/17 A298 RMK A01 T01910168  RH  087%=      5-min Rain = 0
KHA3 230813Z 11016G21KT 19/17 A298 RMK A01 T01910168  RH  086%=      5-min Rain = 0
KHA3 230814Z 11016G23KT 19/17 A298 RMK A01 T01910168  RH  086%=      5-min Rain = 0
KHA3 230815Z 11013KT 19/17 A298 RMK A01 T01910167  RH  086%=      5-min Rain = 0
KHA3 230816Z 11014KT 19/17 A298 RMK A01 T01910168  RH  086%=      5-min Rain = 0
KHA3 230817Z 11016KT 19/17 A298 RMK A01 T01910168  RH  086%=      5-min Rain = 0
KHA3 230818Z 11017KT 19/17 A298 RMK A01 T01910167  RH  086%=      5-min Rain = 0
KHA3 230819Z 11014KT 19/17 A2981 RMK A01 T01920167  RH  086%=      5-min Rain = 0
KHA3 230820Z 11014KT 19/17 A2981 RMK A01 T01910167  RH  085%=      5-min Rain = 0
KHA3 230821Z 11014KT 19/17 A2981 RMK A01 T01920166  RH  085%=      5-min Rain = 0
KHA3 230822Z 11016G21KT 19/17 A298 RMK A01 T01920167  RH  085%=      5-min Rain = 0
KHA3 230823Z 11013KT 19/17 A298 RMK A01 T01920167  RH  085%=      5-min Rain = 0
KHA3 230824Z 11016KT 19/17 A298 RMK A01 T01920167  RH  085%=      5-min Rain = 0
KHA3 230825Z 11016G22KT 19/17 A298 RMK A01 T01920167  RH  085%=      5-min Rain = 0
KHA3 230826Z 11016KT 19/17 A298 RMK A01 T01920167  RH  085%=      5-min Rain = 0
KHA3 230827Z 11016KT 19/17 A298 RMK A01 T01920167  RH  085%=      5-min Rain = 0
KHA3 230828Z 11015KT 19/17 A2981 RMK A01 T01920167  RH  085%=      5-min Rain = 0
KHA3 230829Z 11017KT 19/17 A2981 RMK A01 T01920167  RH  085%=      5-min Rain = 0
KHA3 230830Z 11016KT 19/17 A2981 RMK A01 T01920167  RH  086%=      5-min Rain = 0
KHA3 230831Z 11014KT 19/17 A2981 RMK A01 T01920167  RH  086%=      5-min Rain = 0
KHA3 230832Z 11012KT 19/17 A2981 RMK A01 T01920168  RH  086%=      5-min Rain = 0
KHA3 230833Z 11015KT 19/17 A2981 RMK A01 T01920168  RH  086%=      5-min Rain = 0
KHA3 230834Z 11016KT 19/17 A2981 RMK A01 T01910168  RH  086%=      5-min Rain = 0
KHA3 230835Z 11016KT 19/17 A2981 RMK A01 T01920169  RH  087%=      5-min Rain = 0
KHA3 230836Z 11016KT 19/17 A2981 RMK A01 T01910169  RH  087%=      5-min Rain = 0
KHA3 230837Z 11016G21KT 19/17 A2981 RMK A01 T01920169  RH  087%=      5-min Rain = 0
KHA3 230838Z 11017KT 19/17 A2981 RMK A01 T01920169  RH  087%=      5-min Rain = 0
KHA3 230839Z 11016KT 19/17 A2981 RMK A01 T01920169  RH  087%=      5-min Rain = 0
KHA3 230840Z 11014KT 19/17 A2981 RMK A01 T01920169  RH  087%=      5-min Rain = 0
KHA3 230841Z 12016KT 19/17 A2981 RMK A01 T01920170  RH  087%=      5-min Rain = 0
KHA3 230842Z 12015KT 19/17 A2981 RMK A01 T01910170  RH  087%=      5-min Rain = 0
KHA3 230843Z 12014KT 19/17 A2981 RMK A01 T01910170  RH  087%=      5-min Rain = 0
KHA3 230844Z 12016KT 19/17 A2981 RMK A01 T01910170  RH  088%=      5-min Rain = 0
KHA3 230845Z 12013KT 19/17 A2981 RMK A01 T01910170  RH  088%=      5-min Rain = 0
KHA3 230846Z 12013G19KT 19/17 A2981 RMK A01 T01900170  RH  088%=      5-min Rain = 0
KHA3 230847Z 12016KT 19/17 A2981 RMK A01 T01900170  RH  088%=      5-min Rain = 0
KHA3 230848Z 12015G20KT 19/17 A2981 RMK A01 T01910170  RH  088%=      5-min Rain = 0
KHA3 230849Z 12013KT 19/17 A2981 RMK A01 T01900170  RH  088%=      5-min Rain = 0
KHA3 230850Z 12015G20KT 19/17 A2981 RMK A01 T01900170  RH  088%=      5-min Rain = 0
KHA3 230851Z 12014KT 19/17 A2981 RMK A01 T01900170  RH  088%=      5-min Rain = 0
KHA3 230852Z 13013G20KT 19/17 A2981 RMK A01 T01900170  RH  088%=      5-min Rain = 0
KHA3 230853Z 12014KT 19/17 A2981 RMK A01 T01900170  RH  088%=      5-min Rain = 0
KHA3 230854Z 13013G18KT 19/17 A2981 RMK A01 T01900170  RH  088%=      5-min Rain = 0
KHA3 230855Z 13016KT 19/17 A2981 RMK A01 T01900170  RH  088%=      5-min Rain = 0
KHA3 230856Z 13014KT 19/17 A2981 RMK A01 T01900170  RH  089%=      5-min Rain = 0
KHA3 230857Z 13014KT 19/17 A2981 RMK A01 T01900171  RH  088%=      5-min Rain = 0
KHA3 230858Z 13013KT 19/17 A2981 RMK A01 T01910171  RH  088%=      5-min Rain = 0
KHA3 230859Z 13016G21KT 19/17 A2981 RMK A01 T01910171  RH  089%=      5-min Rain = 0
KHA3 230900Z 13015KT 19/17 A2981 RMK A01 T01920172  RH  089%=      5-min Rain = 0
KHA3 230901Z 13013KT 19/17 A2981 RMK A01 T01920172  RH  088%=      5-min Rain = 0
KHA3 230902Z 13014G19KT 19/17 A2981 RMK A01 T01920173  RH  088%=      5-min Rain = 0
KHA3 230903Z 13016KT 19/17 A2981 RMK A01 T01920173  RH  089%=      5-min Rain = 0
KHA3 230904Z 14015KT 19/17 A2981 RMK A01 T01930174  RH  089%=      5-min Rain = 0
KHA3 230905Z 13013KT 19/17 A2981 RMK A01 T01930174  RH  089%=      5-min Rain = 0
KHA3 230906Z 14013G19KT 19/18 A2981 RMK A01 T01930175  RH  089%=      5-min Rain = 0
KHA3 230907Z 14013G18KT 19/18 A2981 RMK A01 T01930175  RH  089%=      5-min Rain = 0
KHA3 230908Z 13016KT 19/18 A2981 RMK A01 T01930175  RH  089%=      5-min Rain = 0
KHA3 230909Z 13016KT 19/18 A2981 RMK A01 T01940176  RH  089%=      5-min Rain = 0
KHA3 230910Z 14014G20KT 19/18 A2981 RMK A01 T01940176  RH  089%=      5-min Rain = 0
KHA3 230911Z 14018KT 19/18 A2981 RMK A01 T01940176  RH  089%=      5-min Rain = 0
KHA3 230912Z 14017KT 20/18 A2981 RMK A01 T01950176  RH  089%=      5-min Rain = 0
KHA3 230913Z 14018KT 20/18 A2981 RMK A01 T01950176  RH  089%=      5-min Rain = 0
KHA3 230914Z 13016KT 20/18 A2981 RMK A01 T01950176  RH  089%=      5-min Rain = 0
KHA3 230915Z 13016KT 20/18 A2981 RMK A01 T01950176  RH  089%=      5-min Rain = 0
KHA3 230916Z 14015KT 20/18 A2981 RMK A01 T01960176  RH  089%=      5-min Rain = 0
KHA3 230917Z 13014KT 20/18 A2981 RMK A01 T01960176  RH  089%=      5-min Rain = 0
KHA3 230918Z 13016KT 20/18 A2981 RMK A01 T01960177  RH  089%=      5-min Rain = 0
KHA3 230919Z 14016G22KT 20/18 A2981 RMK A01 T01960177  RH  089%=      5-min Rain = 0
KHA3 230920Z 14013KT 20/18 A2981 RMK A01 T01960177  RH  089%=      5-min Rain = 0
KHA3 230921Z 14016KT 20/18 A2981 RMK A01 T01960177  RH  089%=      5-min Rain = 0
KHA3 230922Z 14014KT 20/18 A2981 RMK A01 T01960177  RH  089%=      5-min Rain = 0
KHA3 230923Z 13016G21KT 20/18 A2981 RMK A01 T01950177  RH  089%=      5-min Rain = 0
KHA3 230924Z 13016KT 20/18 A2981 RMK A01 T01950177  RH  089%=      5-min Rain = 0
KHA3 230925Z 13014KT 20/18 A2981 RMK A01 T01950177  RH  089%=      5-min Rain = 0
KHA3 230926Z 13016G24KT 20/18 A2981 RMK A01 T01950176  RH  089%=      5-min Rain = 0
KHA3 230927Z 14017KT 20/18 A2981 RMK A01 T01950176  RH  089%=      5-min Rain = 0
KHA3 230928Z 13017KT 20/18 A2981 RMK A01 T01950176  RH  089%=      5-min Rain = 0
KHA3 230929Z 13016G22KT 20/18 A2981 RMK A01 T01950176  RH  089%=      5-min Rain = 0
KHA3 230930Z 14017KT 20/18 A2981 RMK A01 T01950176  RH  089%=      5-min Rain = 0
KHA3 230931Z 13017KT 20/18 A2981 RMK A01 T01950176  RH  089%=      5-min Rain = 0
KHA3 230932Z 14014KT 20/18 A2981 RMK A01 T01950176  RH  089%=      5-min Rain = 0
KHA3 230933Z 14016G21KT 20/18 A2982 RMK A01 T01950176  RH  089%=      5-min Rain = 0
KHA3 230934Z 14016KT 20/18 A2982 RMK A01 T01950176  RH  089%=      5-min Rain = 0
KHA3 230935Z 14014KT 20/18 A2982 RMK A01 T01950176  RH  089%=      5-min Rain = 0
KHA3 230936Z 14013KT 20/18 A2982 RMK A01 T01950176  RH  089%=      5-min Rain = 0
KHA3 230937Z 13015G20KT 20/18 A2982 RMK A01 T01950176  RH  089%=      5-min Rain = 0
KHA3 230938Z 13018KT 19/18 A2982 RMK A01 T01940176  RH  089%=      5-min Rain = 0
KHA3 230939Z 13017KT 20/18 A2982 RMK A01 T01950176  RH  089%=      5-min Rain = 0
KHA3 230940Z 14016KT 20/18 A2982 RMK A01 T01950176  RH  089%=      5-min Rain = 0
KHA3 230941Z 14013KT 20/18 A2982 RMK A01 T01950176  RH  089%=      5-min Rain = 0
KHA3 230942Z 13014G19KT 20/18 A2982 RMK A01 T01950176  RH  089%=      5-min Rain = 0
KHA3 230943Z 13017KT 20/18 A2982 RMK A01 T01950176  RH  089%=      5-min Rain = 0
KHA3 230944Z 13016KT 20/18 A2982 RMK A01 T01950176  RH  089%=      5-min Rain = 0
KHA3 230945Z 14015KT 20/18 A2982 RMK A01 T01950175  RH  088%=      5-min Rain = 0
KHA3 230946Z 13018KT 20/18 A2981 RMK A01 T01950175  RH  088%=      5-min Rain = 0
KHA3 230947Z 14018G25KT 20/18 A2982 RMK A01 T01950175  RH  088%=      5-min Rain = 0
KHA3 230948Z 13016KT 20/18 A2982 RMK A01 T01950175  RH  088%=      5-min Rain = 0
KHA3 230949Z 13015KT 20/18 A2982 RMK A01 T01950175  RH  088%=      5-min Rain = 0
KHA3 230950Z 13016KT 20/18 A2982 RMK A01 T01950175  RH  088%=      5-min Rain = 0
KHA3 230951Z 14017G22KT 20/18 A2982 RMK A01 T01950175  RH  088%=      5-min Rain = 0
KHA3 230952Z 13015G20KT 20/18 A2982 RMK A01 T01950175  RH  088%=      5-min Rain = 0
KHA3 230953Z 13015KT 20/18 A2982 RMK A01 T01950175  RH  088%=      5-min Rain = 0
KHA3 230954Z 13015KT 20/17 A2982 RMK A01 T01950174  RH  088%=      5-min Rain = 0
KHA3 230955Z 13014KT 20/18 A2982 RMK A01 T01960175  RH  088%=      5-min Rain = 0
KHA3 230956Z 14015G20KT 20/18 A2982 RMK A01 T01950175  RH  088%=      5-min Rain = 0
KHA3 230957Z 14015KT 20/18 A2982 RMK A01 T01950175  RH  088%=      5-min Rain = 0
KHA3 230958Z 13013KT 20/18 A2982 RMK A01 T01950175  RH  088%=      5-min Rain = 0
KHA3 230959Z 13017G22KT 20/18 A2982 RMK A01 T01950175  RH  088%=      5-min Rain = 0
KHA3 231000Z 14014KT 20/18 A2982 RMK A01 T01950175  RH  088%=      5-min Rain = 0
KHA3 231001Z 14014KT 20/18 A2982 RMK A01 T01950175  RH  088%=      5-min Rain = 0
KHA3 231002Z 14017KT 20/18 A2982 RMK A01 T01950175  RH  088%=      5-min Rain = 0
KHA3 231003Z 14015KT 20/18 A2982 RMK A01 T01950175  RH  088%=      5-min Rain = 0
KHA3 231004Z 14015KT 20/18 A2982 RMK A01 T01950175  RH  088%=      5-min Rain = 0
KHA3 231005Z 14015G20KT 20/18 A2982 RMK A01 T01950175  RH  088%=      5-min Rain = 0
KHA3 231006Z 14015G20KT 20/17 A2982 RMK A01 T01950174  RH  088%=      5-min Rain = 0
KHA3 231007Z 14019KT 20/17 A2982 RMK A01 T01950174  RH  088%=      5-min Rain = 0
KHA3 231008Z 14017KT 20/17 A2982 RMK A01 T01950174  RH  087%=      5-min Rain = 0
KHA3 231009Z 14019G24KT 20/17 A2982 RMK A01 T01960174  RH  087%=      5-min Rain = 0
KHA3 231010Z 14018KT 20/17 A2982 RMK A01 T01960174  RH  087%=      5-min Rain = 0
KHA3 231011Z 14016KT 20/17 A2982 RMK A01 T01960174  RH  087%=      5-min Rain = 0
KHA3 231012Z 14015KT 20/17 A2982 RMK A01 T01970174  RH  087%=      5-min Rain = 0
KHA3 231013Z 14017KT 20/17 A2982 RMK A01 T01970174  RH  087%=      5-min Rain = 0
KHA3 231014Z 14017KT 20/17 A2982 RMK A01 T01970174  RH  086%=      5-min Rain = 0
KHA3 231015Z 14020G26KT 20/17 A2982 RMK A01 T01970173  RH  086%=      5-min Rain = 0
KHA3 231016Z 14017KT 20/17 A2982 RMK A01 T01980173  RH  086%=      5-min Rain = 0
KHA3 231017Z 14015KT 20/17 A2982 RMK A01 T01980173  RH  085%=      5-min Rain = 0
KHA3 231018Z 14017KT 20/17 A2982 RMK A01 T01980173  RH  085%=      5-min Rain = 0
KHA3 231019Z 14017KT 20/17 A2982 RMK A01 T01980173  RH  085%=      5-min Rain = 0
KHA3 231020Z 13015KT 20/17 A2982 RMK A01 T01980172  RH  085%=      5-min Rain = 0
KHA3 231021Z 14016KT 20/17 A2982 RMK A01 T01980172  RH  085%=      5-min Rain = 0
KHA3 231022Z 14016KT 20/17 A2982 RMK A01 T01990172  RH  085%=      5-min Rain = 0
KHA3 231023Z 14015G20KT 20/17 A2982 RMK A01 T01990172  RH  084%=      5-min Rain = 0
KHA3 231024Z 14016KT 20/17 A2982 RMK A01 T01990172  RH  084%=      5-min Rain = 0
KHA3 231025Z 14017KT 20/17 A2982 RMK A01 T01990172  RH  084%=      5-min Rain = 0
KHA3 231026Z 14017KT 20/17 A2982 RMK A01 T02000172  RH  084%=      5-min Rain = 0
KHA3 231027Z 14017KT 20/17 A2982 RMK A01 T02000172  RH  084%=      5-min Rain = 0
KHA3 231028Z 14018KT 20/17 A2982 RMK A01 T02000171  RH  083%=      5-min Rain = 0
KHA3 231029Z 14016KT 20/17 A2982 RMK A01 T02010171  RH  083%=      5-min Rain = 0
KHA3 231030Z 14014G20KT 20/17 A2982 RMK A01 T02010171  RH  083%=      5-min Rain = 0
KHA3 231031Z 14016KT 20/17 A2982 RMK A01 T02010171  RH  083%=      5-min Rain = 0
KHA3 231032Z 14016G22KT 20/17 A2982 RMK A01 T02010171  RH  083%=      5-min Rain = 0
KHA3 231033Z 14017KT 20/17 A2982 RMK A01 T02010171  RH  083%=      5-min Rain = 0
KHA3 231034Z 14017KT 20/17 A2982 RMK A01 T02010170  RH  082%=      5-min Rain = 0
KHA3 231035Z 14019KT 20/17 A2982 RMK A01 T02020170  RH  082%=      5-min Rain = 0
KHA3 231036Z 14017KT 20/17 A2982 RMK A01 T02020171  RH  082%=      5-min Rain = 0
KHA3 231037Z 14017G24KT 20/17 A2982 RMK A01 T02020170  RH  082%=      5-min Rain = 0
KHA3 231038Z 14018KT 20/17 A2982 RMK A01 T02020170  RH  082%=      5-min Rain = 0
KHA3 231039Z 14018KT 20/17 A2982 RMK A01 T02030170  RH  082%=      5-min Rain = 0
KHA3 231040Z 14018KT 20/17 A2982 RMK A01 T02030170  RH  082%=      5-min Rain = 0
KHA3 231041Z 14015KT 20/17 A2982 RMK A01 T02030170  RH  082%=      5-min Rain = 0
KHA3 231042Z 14018KT 20/17 A2982 RMK A01 T02020170  RH  082%=      5-min Rain = 0
KHA3 231043Z 14018G23KT 20/17 A2982 RMK A01 T02030170  RH  082%=      5-min Rain = 0
KHA3 231044Z 14016G21KT 20/17 A2982 RMK A01 T02030170  RH  082%=      5-min Rain = 0
KHA3 231045Z 14014KT 20/17 A2982 RMK A01 T02020170  RH  082%=      5-min Rain = 0
KHA3 231046Z 14015KT 20/17 A2982 RMK A01 T02030171  RH  082%=      5-min Rain = 0
KHA3 231047Z 14016KT 20/17 A2982 RMK A01 T02020171  RH  082%=      5-min Rain = 0
KHA3 231048Z 14018KT 20/17 A2982 RMK A01 T02020171  RH  082%=      5-min Rain = 0
KHA3 231049Z 14015KT 20/17 A2982 RMK A01 T02030170  RH  082%=      5-min Rain = 0
KHA3 231050Z 14018KT 20/17 A2982 RMK A01 T02030170  RH  082%=      5-min Rain = 0
KHA3 231051Z 14019KT 20/17 A2982 RMK A01 T02030170  RH  081%=      5-min Rain = 0
KHA3 231052Z 14016G21KT 20/17 A2982 RMK A01 T02040170  RH  081%=      5-min Rain = 0
KHA3 231053Z 14019KT 20/17 A2982 RMK A01 T02040170  RH  081%=      5-min Rain = 0
KHA3 231054Z 15017KT 20/17 A2982 RMK A01 T02040170  RH  081%=      5-min Rain = 0
KHA3 231055Z 14017G24KT 20/17 A2983 RMK A01 T02040171  RH  081%=      5-min Rain = 0
KHA3 231056Z 14019G25KT 20/17 A2982 RMK A01 T02040171  RH  081%=      5-min Rain = 0
KHA3 231057Z 14019KT 20/17 A2983 RMK A01 T02040170  RH  081%=      5-min Rain = 0
KHA3 231058Z 14018KT 21/17 A2983 RMK A01 T02050171  RH  081%=      5-min Rain = 0
KHA3 231059Z 14019KT 21/17 A2983 RMK A01 T02050170  RH  081%=      5-min Rain = 0
KHA3 231100Z 14018KT 21/17 A2983 RMK A01 T02050171  RH  081%=      5-min Rain = 0
KHA3 231101Z 15021KT 21/17 A2983 RMK A01 T02050171  RH  081%=      5-min Rain = 0
KHA3 231102Z 14018KT 21/17 A2983 RMK A01 T02050171  RH  081%=      5-min Rain = 0
KHA3 231103Z 14017G22KT 21/17 A2983 RMK A01 T02050171  RH  081%=      5-min Rain = 0
KHA3 231104Z 14016G21KT 21/17 A2983 RMK A01 T02050171  RH  081%=      5-min Rain = 0
KHA3 231105Z 14016G22KT 20/17 A2983 RMK A01 T02040172  RH  081%=      5-min Rain = 0
KHA3 231106Z 14020KT 20/17 A2983 RMK A01 T02040171  RH  081%=      5-min Rain = 0
KHA3 231107Z 14017G22KT 20/17 A2983 RMK A01 T02040171  RH  081%=      5-min Rain = 0
KHA3 231108Z 14021KT 21/17 A2983 RMK A01 T02050171  RH  081%=      5-min Rain = 0
KHA3 231109Z 15020KT 21/17 A2983 RMK A01 T02050171  RH  081%=      5-min Rain = 0
KHA3 231110Z 15021KT 21/17 A2983 RMK A01 T02050171  RH  081%=      5-min Rain = 0
KHA3 231111Z 15020KT 21/17 A2983 RMK A01 T02060171  RH  081%=      5-min Rain = 0
KHA3 231112Z 14017KT 21/17 A2983 RMK A01 T02060171  RH  081%=      5-min Rain = 0
KHA3 231113Z 14016KT 21/17 A2983 RMK A01 T02050171  RH  081%=      5-min Rain = 0
KHA3 231114Z 15018KT 21/17 A2983 RMK A01 T02050172  RH  081%=      5-min Rain = 0
KHA3 231115Z 15017KT 21/17 A2983 RMK A01 T02050172  RH  081%=      5-min Rain = 0
KHA3 231116Z 14018KT 21/17 A2983 RMK A01 T02050171  RH  081%=      5-min Rain = 0
KHA3 231117Z 15018G23KT 21/17 A2983 RMK A01 T02050171  RH  081%=      5-min Rain = 0
KHA3 231118Z 14017KT 21/17 A2983 RMK A01 T02050171  RH  081%=      5-min Rain = 0
KHA3 231119Z 14018G25KT 21/17 A2983 RMK A01 T02050171  RH  081%=      5-min Rain = 0
KHA3 231120Z 14017KT 21/17 A2983 RMK A01 T02050171  RH  081%=      5-min Rain = 0
KHA3 231121Z 14018G23KT 21/17 A2983 RMK A01 T02050171  RH  081%=      5-min Rain = 0
KHA3 231122Z 14015G23KT 21/17 A2983 RMK A01 T02060171  RH  081%=      5-min Rain = 0
KHA3 231123Z 14020KT 21/17 A2983 RMK A01 T02060172  RH  081%=      5-min Rain = 0
KHA3 231124Z 14020KT 21/17 A2983 RMK A01 T02060171  RH  081%=      5-min Rain = 0
KHA3 231125Z 15021G28KT 21/17 A2983 RMK A01 T02060171  RH  080%=      5-min Rain = 0
KHA3 231126Z 14019KT 21/17 A2983 RMK A01 T02060171  RH  080%=      5-min Rain = 0
KHA3 231127Z 14020KT 21/17 A2983 RMK A01 T02060170  RH  080%=      5-min Rain = 0
KHA3 231128Z 14018KT 21/17 A2983 RMK A01 T02060170  RH  080%=      5-min Rain = 0
KHA3 231129Z 14017G26KT 21/17 A2984 RMK A01 T02070171  RH  080%=      5-min Rain = 0
KHA3 231130Z 15021KT 21/17 A2983 RMK A01 T02070171  RH  080%=      5-min Rain = 0
KHA3 231131Z 14017KT 21/17 A2983 RMK A01 T02070170  RH  080%=      5-min Rain = 0
KHA3 231132Z 14020G26KT 21/17 A2984 RMK A01 T02070171  RH  080%=      5-min Rain = 0
KHA3 231133Z 14018KT 21/17 A2984 RMK A01 T02070171  RH  080%=      5-min Rain = 0
KHA3 231134Z 15020G25KT 21/17 A2984 RMK A01 T02060170  RH  080%=      5-min Rain = 0
KHA3 231135Z 14019KT 21/17 A2984 RMK A01 T02060171  RH  080%=      5-min Rain = 0
KHA3 231136Z 15020KT 21/17 A2983 RMK A01 T02060171  RH  080%=      5-min Rain = 0
KHA3 231137Z 14018KT 21/17 A2984 RMK A01 T02060171  RH  080%=      5-min Rain = 0
KHA3 231138Z 15018KT 21/17 A2984 RMK A01 T02060171  RH  080%=      5-min Rain = 0
KHA3 231139Z 15018G24KT 21/17 A2984 RMK A01 T02060171  RH  080%=      5-min Rain = 0
KHA3 231140Z 15017KT 21/17 A2984 RMK A01 T02060171  RH  080%=      5-min Rain = 0
KHA3 231141Z 15019KT 21/17 A2984 RMK A01 T02060171  RH  081%=      5-min Rain = 0
KHA3 231142Z 14020KT 21/17 A2983 RMK A01 T02060171  RH  081%=      5-min Rain = 0
KHA3 231143Z 15016KT 21/17 A2984 RMK A01 T02060171  RH  081%=      5-min Rain = 0
KHA3 231144Z 15019KT 21/17 A2984 RMK A01 T02060172  RH  081%=      5-min Rain = 0
KHA3 231145Z 15020KT 21/17 A2984 RMK A01 T02060171  RH  081%=      5-min Rain = 0
KHA3 231146Z 15022G27KT 21/17 A2984 RMK A01 T02060171  RH  080%=      5-min Rain = 0
KHA3 231147Z 15019G25KT 21/17 A2984 RMK A01 T02060171  RH  080%=      5-min Rain = 0
KHA3 231148Z 15019G24KT 21/17 A2984 RMK A01 T02060171  RH  080%=      5-min Rain = 0
KHA3 231149Z 15019KT 21/17 A2984 RMK A01 T02060171  RH  080%=      5-min Rain = 0
KHA3 231150Z 15017KT 21/17 A2984 RMK A01 T02060171  RH  080%=      5-min Rain = 0
KHA3 231151Z 15018KT 21/17 A2984 RMK A01 T02060171  RH  080%=      5-min Rain = 0
KHA3 231152Z 15020G25KT 21/17 A2984 RMK A01 T02060171  RH  080%=      5-min Rain = 0
KHA3 231153Z 15018G23KT 21/17 A2984 RMK A01 T02060171  RH  080%=      5-min Rain = 0
KHA3 231154Z 15018G23KT 21/17 A2984 RMK A01 T02060170  RH  080%=      5-min Rain = 0
KHA3 231155Z 15020KT 21/17 A2984 RMK A01 T02070170  RH  080%=      5-min Rain = 0
KHA3 231156Z 15022KT 21/17 A2984 RMK A01 T02070170  RH  079%=      5-min Rain = 0
KHA3 231157Z 15022KT 21/17 A2984 RMK A01 T02070170  RH  079%=      5-min Rain = 0
KHA3 231158Z 15017G22KT 21/17 A2984 RMK A01 T02080170  RH  079%=      5-min Rain = 0
KHA3 231159Z 15019KT 21/17 A2984 RMK A01 T02080170  RH  079%=      5-min Rain = 0
KHA3 231200Z 15018KT 21/17 A2984 RMK A01 T02080169  RH  079%=      5-min Rain = 0
KHA3 231201Z 16019G24KT 21/17 A2984 RMK A01 T02070169  RH  079%=      5-min Rain = 0
KHA3 231202Z 15018KT 21/17 A2984 RMK A01 T02080169  RH  079%=      5-min Rain = 0
KHA3 231203Z 16020G25KT 21/17 A2984 RMK A01 T02080169  RH  079%=      5-min Rain = 0
KHA3 231204Z 15017G22KT 21/17 A2984 RMK A01 T02080169  RH  078%=      5-min Rain = 0
KHA3 231205Z 15018G27KT 21/17 A2984 RMK A01 T02080169  RH  078%=      5-min Rain = 0
KHA3 231206Z 15022KT 21/17 A2984 RMK A01 T02080169  RH  078%=      5-min Rain = 0
KHA3 231207Z 15019KT 21/17 A2984 RMK A01 T02090169  RH  078%=      5-min Rain = 0
KHA3 231208Z 16020KT 21/17 A2984 RMK A01 T02090169  RH  078%=      5-min Rain = 0
KHA3 231209Z 16017G23KT 21/17 A2984 RMK A01 T02090169  RH  078%=      5-min Rain = 0
KHA3 231210Z 16019KT 21/17 A2984 RMK A01 T02090169  RH  078%=      5-min Rain = 0
KHA3 231211Z 15019G24KT 21/17 A2984 RMK A01 T02090169  RH  078%=      5-min Rain = 0
KHA3 231212Z 16020G25KT 21/17 A2984 RMK A01 T02090169  RH  078%=      5-min Rain = 0
KHA3 231213Z 15020G28KT 21/17 A2984 RMK A01 T02090169  RH  078%=      5-min Rain = 0
KHA3 231214Z 16020KT 21/17 A2984 RMK A01 T02090168  RH  078%=      5-min Rain = 0
KHA3 231215Z 15022G28KT 21/17 A2984 RMK A01 T02090168  RH  077%=      5-min Rain = 0
KHA3 231216Z 16021G26KT 21/17 A2984 RMK A01 T02100168  RH  077%=      5-min Rain = 0
KHA3 231217Z 16019G29KT 21/17 A2984 RMK A01 T02100168  RH  077%=      5-min Rain = 0
KHA3 231218Z 16020KT 21/17 A2984 RMK A01 T02100168  RH  077%=      5-min Rain = 0
KHA3 231219Z 15019KT 21/17 A2984 RMK A01 T02100168  RH  077%=      5-min Rain = 0
KHA3 231220Z 16020G25KT 21/17 A2984 RMK A01 T02100169  RH  077%=      5-min Rain = 0
KHA3 231221Z 16019G24KT 21/17 A2984 RMK A01 T02100168  RH  077%=      5-min Rain = 0
KHA3 231222Z 16017KT 21/17 A2984 RMK A01 T02100168  RH  077%=      5-min Rain = 0
KHA3 231223Z 16023KT 21/17 A2984 RMK A01 T02100168  RH  077%=      5-min Rain = 0
KHA3 231224Z 15021KT 21/17 A2985 RMK A01 T02100168  RH  077%=      5-min Rain = 0
KHA3 231225Z 16018KT 21/17 A2985 RMK A01 T02100168  RH  077%=      5-min Rain = 0
KHA3 231226Z 16019G27KT 21/17 A2985 RMK A01 T02100169  RH  077%=      5-min Rain = 0
KHA3 231227Z 15020KT 21/17 A2985 RMK A01 T02100168  RH  077%=      5-min Rain = 0
KHA3 231228Z 15020KT 21/17 A2985 RMK A01 T02090168  RH  077%=      5-min Rain = 0
KHA3 231229Z 16023KT 21/17 A2985 RMK A01 T02090168  RH  077%=      5-min Rain = 0
KHA3 231230Z 15022KT 21/17 A2985 RMK A01 T02100168  RH  077%=      5-min Rain = 0
KHA3 231231Z 16018G23KT 21/17 A2985 RMK A01 T02100168  RH  077%=      5-min Rain = 0
KHA3 231232Z 15019G24KT 21/17 A2985 RMK A01 T02100168  RH  077%=      5-min Rain = 0
KHA3 231233Z 16019KT 21/17 A2985 RMK A01 T02100168  RH  077%=      5-min Rain = 0
KHA3 231234Z 16016G22KT 21/17 A2985 RMK A01 T02100169  RH  077%=      5-min Rain = 0
KHA3 231235Z 16018G24KT 21/17 A2985 RMK A01 T02100168  RH  077%=      5-min Rain = 0
KHA3 231236Z 15019G24KT 21/17 A2985 RMK A01 T02100168  RH  077%=      5-min Rain = 0
KHA3 231237Z 15017KT 21/17 A2985 RMK A01 T02100168  RH  077%=      5-min Rain = 0
KHA3 231238Z 16014G19KT 21/17 A2986 RMK A01 T02100168  RH  077%=      5-min Rain = 0
KHA3 231239Z 15020G26KT 21/17 A2986 RMK A01 T02100168  RH  077%=      5-min Rain = 0
KHA3 231240Z 15019G25KT 21/17 A2986 RMK A01 T02100168  RH  077%=      5-min Rain = 0
KHA3 231241Z 15021KT 21/17 A2986 RMK A01 T02100168  RH  076%=      5-min Rain = 0
KHA3 231242Z 15018KT 21/17 A2986 RMK A01 T02110167  RH  076%=      5-min Rain = 0
KHA3 231243Z 15016KT 21/17 A2986 RMK A01 T02110167  RH  076%=      5-min Rain = 0
KHA3 231244Z 16019G25KT 21/17 A2986 RMK A01 T02110167  RH  076%=      5-min Rain = 0
KHA3 231245Z 16023G28KT 21/17 A2986 RMK A01 T02120167  RH  075%=      5-min Rain = 0
KHA3 231246Z 16021KT 21/17 A2986 RMK A01 T02120166  RH  075%=      5-min Rain = 0
KHA3 231247Z 15022G27KT 21/17 A2986 RMK A01 T02130166  RH  075%=      5-min Rain = 0
KHA3 231248Z 15020KT 21/17 A2986 RMK A01 T02130166  RH  075%=      5-min Rain = 0
KHA3 231249Z 15018G27KT 21/17 A2986 RMK A01 T02130166  RH  075%=      5-min Rain = 0
KHA3 231250Z 15024KT 21/17 A2986 RMK A01 T02130166  RH  074%=      5-min Rain = 0
KHA3 231251Z 15023G29KT 21/17 A2986 RMK A01 T02140166  RH  074%=      5-min Rain = 0
KHA3 231252Z 15019KT 21/17 A2986 RMK A01 T02140166  RH  074%=      5-min Rain = 0
KHA3 231253Z 16020KT 22/17 A2986 RMK A01 T02150166  RH  074%=      5-min Rain = 0
KHA3 231254Z 15021G26KT 22/17 A2986 RMK A01 T02150166  RH  074%=      5-min Rain = 0
KHA3 231255Z 15018G24KT 21/17 A2986 RMK A01 T02140166  RH  074%=      5-min Rain = 0
KHA3 231256Z 15017G24KT 22/17 A2986 RMK A01 T02150166  RH  074%=      5-min Rain = 0
KHA3 231257Z 15016KT 21/17 A2986 RMK A01 T02140166  RH  074%=      5-min Rain = 0
KHA3 231258Z 15018G23KT 21/17 A2986 RMK A01 T02140166  RH  074%=      5-min Rain = 0
KHA3 231259Z 15017KT 22/17 A2987 RMK A01 T02150166  RH  074%=      5-min Rain = 0
KHA3 231300Z 15015KT 22/17 A2987 RMK A01 T02150166  RH  074%=      5-min Rain = 0
KHA3 231301Z 15020G26KT 22/17 A2987 RMK A01 T02150165  RH  073%=      5-min Rain = 0
KHA3 231302Z 15021G26KT 22/16 A2987 RMK A01 T02150164  RH  072%=      5-min Rain = 0
KHA3 231303Z 15019G24KT 22/16 A2987 RMK A01 T02160164  RH  072%=      5-min Rain = 0
KHA3 231304Z 15024G31KT 22/16 A2987 RMK A01 T02160163  RH  072%=      5-min Rain = 0
KHA3 231305Z 15024KT 22/16 A2987 RMK A01 T02170161  RH  071%=      5-min Rain = 0
KHA3 231306Z 14023KT 22/16 A2987 RMK A01 T02170161  RH  070%=      5-min Rain = 0
KHA3 231307Z 15023G30KT 22/16 A2987 RMK A01 T02170161  RH  070%=      5-min Rain = 0
KHA3 231308Z 15021KT 22/16 A2987 RMK A01 T02170161  RH  070%=      5-min Rain = 0
KHA3 231309Z 15023G28KT 22/16 A2987 RMK A01 T02180160  RH  069%=      5-min Rain = 0
KHA3 231310Z 15022G29KT 22/16 A2987 RMK A01 T02190159  RH  069%=      5-min Rain = 0
KHA3 231311Z 15021KT 22/16 A2987 RMK A01 T02190160  RH  069%=      5-min Rain = 0
KHA3 231312Z 15022G31KT 22/16 A2987 RMK A01 T02200159  RH  068%=      5-min Rain = 0
KHA3 231313Z 16023G30KT 22/16 A2987 RMK A01 T02210159  RH  068%=      5-min Rain = 0
KHA3 231314Z 15020G26KT 22/16 A2987 RMK A01 T02220159  RH  067%=      5-min Rain = 0
KHA3 231315Z 15024G31KT 22/16 A2987 RMK A01 T02230158  RH  067%=      5-min Rain = 0
KHA3 231316Z 16024KT 22/16 A2987 RMK A01 T02230157  RH  066%=      5-min Rain = 0
KHA3 231317Z 15021KT 22/16 A2987 RMK A01 T02240158  RH  066%=      5-min Rain = 0
KHA3 231318Z 15020G25KT 22/16 A2987 RMK A01 T02240158  RH  066%=      5-min Rain = 0
KHA3 231319Z 15021G27KT 22/16 A2987 RMK A01 T02240158  RH  066%=      5-min Rain = 0
KHA3 231320Z 16020G25KT 23/16 A2987 RMK A01 T02250158  RH  066%=      5-min Rain = 0
KHA3 231321Z 15024G31KT 23/16 A2987 RMK A01 T02250158  RH  065%=      5-min Rain = 0
KHA3 231322Z 15021G27KT 23/16 A2987 RMK A01 T02260157  RH  065%=      5-min Rain = 0
KHA3 231323Z 15027G32KT 23/16 A2987 RMK A01 T02260157  RH  065%=      5-min Rain = 0
KHA3 231324Z 15023G28KT 23/16 A2987 RMK A01 T02260157  RH  065%=      5-min Rain = 0
KHA3 231325Z 16023KT 23/16 A2987 RMK A01 T02260158  RH  065%=      5-min Rain = 0
KHA3 231326Z 15023G30KT 23/16 A2987 RMK A01 T02260157  RH  065%=      5-min Rain = 0
KHA3 231327Z 16023KT 23/16 A2987 RMK A01 T02260157  RH  065%=      5-min Rain = 0
KHA3 231328Z 15020G26KT 23/16 A2987 RMK A01 T02270157  RH  065%=      5-min Rain = 0
KHA3 231329Z 15021KT 23/16 A2987 RMK A01 T02270157  RH  065%=      5-min Rain = 0
KHA3 231330Z 15024G29KT 23/16 A2987 RMK A01 T02280156  RH  064%=      5-min Rain = 0
KHA3 231331Z 15022KT 23/16 A2987 RMK A01 T02280156  RH  064%=      5-min Rain = 0
KHA3 231332Z 15023G31KT 23/16 A2987 RMK A01 T02280157  RH  064%=      5-min Rain = 0
KHA3 231333Z 15027KT 23/16 A2987 RMK A01 T02280156  RH  064%=      5-min Rain = 0
KHA3 231334Z 15023KT 23/16 A2988 RMK A01 T02280156  RH  064%=      5-min Rain = 0
KHA3 231335Z 15024G29KT 23/16 A2988 RMK A01 T02270156  RH  064%=      5-min Rain = 0
KHA3 231336Z 15022KT 23/16 A2988 RMK A01 T02280156  RH  064%=      5-min Rain = 0
KHA3 231337Z 15024G30KT 23/16 A2988 RMK A01 T02280156  RH  064%=      5-min Rain = 0
KHA3 231338Z 15025G30KT 23/16 A2988 RMK A01 T02280156  RH  064%=      5-min Rain = 0
KHA3 231339Z 14025G30KT 23/16 A2988 RMK A01 T02280156  RH  064%=      5-min Rain = 0
KHA3 231340Z 15021G26KT 23/16 A2988 RMK A01 T02280157  RH  064%=      5-min Rain = 0
KHA3 231341Z 15024KT 23/16 A2988 RMK A01 T02290157  RH  064%=      5-min Rain = 0
KHA3 231342Z 15021G27KT 23/16 A2988 RMK A01 T02290158  RH  064%=      5-min Rain = 0
KHA3 231343Z 15024G31KT 23/16 A2988 RMK A01 T02300158  RH  064%=      5-min Rain = 0
KHA3 231344Z 15018G24KT 23/16 A2988 RMK A01 T02300158  RH  064%=      5-min Rain = 0
KHA3 231345Z 15021KT 23/16 A2988 RMK A01 T02300159  RH  064%=      5-min Rain = 0
KHA3 231346Z 15021KT 23/16 A2988 RMK A01 T02310159  RH  064%=      5-min Rain = 0
KHA3 231347Z 15023KT 23/16 A2988 RMK A01 T02310159  RH  064%=      5-min Rain = 0
KHA3 231348Z 15024G30KT 23/16 A2988 RMK A01 T02310158  RH  064%=      5-min Rain = 0
KHA3 231349Z 16025G32KT 23/16 A2988 RMK A01 T02310158  RH  063%=      5-min Rain = 0
KHA3 231350Z 15021G26KT 23/16 A2988 RMK A01 T02310158  RH  063%=      5-min Rain = 0
KHA3 231351Z 15020G25KT 23/16 A2988 RMK A01 T02310159  RH  064%=      5-min Rain = 0
KHA3 231352Z 15022G29KT 23/16 A2988 RMK A01 T02320159  RH  064%=      5-min Rain = 0
KHA3 231353Z 15025G32KT 23/16 A2988 RMK A01 T02320158  RH  063%=      5-min Rain = 0
KHA3 231354Z 15020KT 23/16 A2988 RMK A01 T02320157  RH  063%=      5-min Rain = 0
KHA3 231355Z 16021KT 23/16 A2988 RMK A01 T02330159  RH  063%=      5-min Rain = 0
KHA3 231356Z 16025G31KT 23/16 A2988 RMK A01 T02340158  RH  062%=      5-min Rain = 0
KHA3 231357Z 15022KT 23/16 A2988 RMK A01 T02320157  RH  063%=      5-min Rain = 0
KHA3 231358Z 15026G31KT 23/16 A2988 RMK A01 T02320157  RH  063%=      5-min Rain = 0
KHA3 231359Z 15024G29KT 23/16 A2988 RMK A01 T02320156  RH  062%=      5-min Rain = 0
KHA3 231400Z 16020G25KT 23/16 A2988 RMK A01 T02320156  RH  062%=      5-min Rain = 0
KHA3 231401Z 15018KT 23/16 A2988 RMK A01 T02330158  RH  063%=      5-min Rain = 0
KHA3 231402Z 15025G30KT 24/16 A2988 RMK A01 T02350158  RH  062%=      5-min Rain = 0
KHA3 231403Z 15022G27KT 24/16 A2988 RMK A01 T02360158  RH  062%=      5-min Rain = 0
KHA3 231404Z 15021G27KT 23/16 A2988 RMK A01 T02340158  RH  062%=      5-min Rain = 0
KHA3 231405Z 15024G29KT 23/16 A2988 RMK A01 T02340157  RH  062%=      5-min Rain = 0
KHA3 231406Z 15021G26KT 24/16 A2988 RMK A01 T02350157  RH  061%=      5-min Rain = 0
KHA3 231407Z 16022G28KT 24/16 A2988 RMK A01 T02350157  RH  062%=      5-min Rain = 0
KHA3 231408Z 16019KT 24/16 A2989 RMK A01 T02350158  RH  062%=      5-min Rain = 0
KHA3 231409Z 16021KT 24/16 A2988 RMK A01 T02370158  RH  061%=      5-min Rain = 0
KHA3 231410Z 16025KT 24/16 A2989 RMK A01 T02370157  RH  061%=      5-min Rain = 0
KHA3 231411Z 15028KT 24/16 A2988 RMK A01 T02370155  RH  060%=      5-min Rain = 0
KHA3 231412Z 15024G31KT 24/16 A2988 RMK A01 T02360155  RH  060%=      5-min Rain = 0
KHA3 231413Z 15020KT 24/16 A2989 RMK A01 T02360156  RH  061%=      5-min Rain = 0
KHA3 231414Z 15021G27KT 24/16 A2989 RMK A01 T02370156  RH  061%=      5-min Rain = 0
KHA3 231415Z 16027G33KT 24/16 A2988 RMK A01 T02370155  RH  060%=      5-min Rain = 0
KHA3 231416Z 15021G28KT 24/16 A2988 RMK A01 T02360155  RH  061%=      5-min Rain = 0
KHA3 231417Z 15019G24KT 24/16 A2988 RMK A01 T02360156  RH  061%=      5-min Rain = 0
KHA3 231418Z 16025KT 24/16 A2988 RMK A01 T02380156  RH  060%=      5-min Rain = 0
KHA3 231419Z 16022G29KT 24/16 A2988 RMK A01 T02360155  RH  060%=      5-min Rain = 0
KHA3 231420Z 15023G28KT 24/16 A2988 RMK A01 T02360156  RH  060%=      5-min Rain = 0
KHA3 231421Z 15024G32KT 24/16 A2988 RMK A01 T02390156  RH  059%=      5-min Rain = 0
KHA3 231422Z 16023KT 24/16 A2989 RMK A01 T02400155  RH  059%=      5-min Rain = 0
KHA3 231423Z 15022G28KT 24/16 A2989 RMK A01 T02400156  RH  059%=      5-min Rain = 0
KHA3 231424Z 15019KT 24/16 A2989 RMK A01 T02400156  RH  059%=      5-min Rain = 0
KHA3 231425Z 15023G30KT 24/16 A2988 RMK A01 T02410156  RH  059%=      5-min Rain = 0
KHA3 231426Z 15022G28KT 24/16 A2988 RMK A01 T02420155  RH  058%=      5-min Rain = 0
KHA3 231427Z 15025G33KT 24/16 A2988 RMK A01 T02420155  RH  058%=      5-min Rain = 0
KHA3 231428Z 15026G34KT 24/15 A2988 RMK A01 T02410154  RH  058%=      5-min Rain = 0
KHA3 231429Z 15024G29KT 24/15 A2988 RMK A01 T02400154  RH  058%=      5-min Rain = 0
KHA3 231430Z 15022G27KT 24/15 A2988 RMK A01 T02400154  RH  059%=      5-min Rain = 0
KHA3 231431Z 15022G27KT 24/15 A2988 RMK A01 T02410154  RH  058%=      5-min Rain = 0
KHA3 231432Z 15023G28KT 24/16 A2988 RMK A01 T02420155  RH  058%=      5-min Rain = 0
KHA3 231433Z 15024G32KT 24/16 A2988 RMK A01 T02420155  RH  058%=      5-min Rain = 0
KHA3 231434Z 15023G30KT 24/16 A2989 RMK A01 T02430156  RH  058%=      5-min Rain = 0
KHA3 231435Z 15022G28KT 24/16 A2989 RMK A01 T02430156  RH  058%=      5-min Rain = 0
KHA3 231436Z 15017KT 24/16 A2989 RMK A01 T02430157  RH  059%=      5-min Rain = 0
KHA3 231437Z 16016G23KT 25/16 A2989 RMK A01 T02460159  RH  059%=      5-min Rain = 0
KHA3 231438Z 15021KT 25/16 A2989 RMK A01 T02460158  RH  058%=      5-min Rain = 0
KHA3 231439Z 15020G26KT 25/16 A2989 RMK A01 T02450158  RH  058%=      5-min Rain = 0
KHA3 231440Z 15021G27KT 25/16 A2989 RMK A01 T02450158  RH  059%=      5-min Rain = 0
KHA3 231441Z 15021G28KT 24/16 A2989 RMK A01 T02440158  RH  059%=      5-min Rain = 0
KHA3 231442Z 16024G29KT 25/16 A2989 RMK A01 T02450158  RH  058%=      5-min Rain = 0
KHA3 231443Z 16026G32KT 24/16 A2989 RMK A01 T02440158  RH  059%=      5-min Rain = 0
KHA3 231444Z 16022KT 24/16 A2989 RMK A01 T02430158  RH  059%=      5-min Rain = 0
KHA3 231445Z 16019G25KT 24/16 A2989 RMK A01 T02430159  RH  059%=      5-min Rain = 0
KHA3 231446Z 15026KT 25/16 A2989 RMK A01 T02450158  RH  058%=      5-min Rain = 0
KHA3 231447Z 15025KT 25/16 A2989 RMK A01 T02450158  RH  058%=      5-min Rain = 0
KHA3 231448Z 16024G31KT 25/16 A2989 RMK A01 T02450158  RH  058%=      5-min Rain = 0
KHA3 231449Z 15023G28KT 25/16 A2989 RMK A01 T02450158  RH  058%=      5-min Rain = 0
KHA3 231450Z 15023G28KT 25/16 A2989 RMK A01 T02450157  RH  058%=      5-min Rain = 0
KHA3 231451Z 15025G32KT 25/16 A2989 RMK A01 T02450157  RH  058%=      5-min Rain = 0
KHA3 231452Z 15023KT 25/16 A2989 RMK A01 T02450157  RH  058%=      5-min Rain = 0
KHA3 231453Z 15019G28KT 25/16 A2989 RMK A01 T02450158  RH  058%=      5-min Rain = 0
KHA3 231454Z 15023G28KT 25/16 A2989 RMK A01 T02470158  RH  058%=      5-min Rain = 0
KHA3 231455Z 15027KT 25/16 A2989 RMK A01 T02480158  RH  057%=      5-min Rain = 0
KHA3 231456Z 15025G33KT 25/16 A2989 RMK A01 T02470157  RH  057%=      5-min Rain = 0
KHA3 231457Z 15025G30KT 25/16 A2989 RMK A01 T02460157  RH  058%=      5-min Rain = 0
KHA3 231458Z 15020G29KT 25/16 A2989 RMK A01 T02460157  RH  058%=      5-min Rain = 0
KHA3 231459Z 15028G35KT 25/16 A2989 RMK A01 T02460157  RH  058%=      5-min Rain = 0
KHA3 231500Z 15025G32KT 25/16 A2989 RMK A01 T02470157  RH  057%=      5-min Rain = 0
KHA3 231501Z 15025G35KT 25/16 A2988 RMK A01 T02460157  RH  057%=      5-min Rain = 0
KHA3 231502Z 15022KT 25/16 A2989 RMK A01 T02460158  RH  058%=      5-min Rain = 0
KHA3 231503Z 16022G27KT 25/16 A2989 RMK A01 T02470158  RH  058%=      5-min Rain = 0
KHA3 231504Z 16024KT 25/16 A2988 RMK A01 T02490158  RH  057%=      5-min Rain = 0
KHA3 231505Z 16022KT 25/16 A2988 RMK A01 T02490159  RH  057%=      5-min Rain = 0
KHA3 231506Z 15021KT 25/16 A2988 RMK A01 T02510160  RH  057%=      5-min Rain = 0
KHA3 231507Z 16020KT 25/16 A2988 RMK A01 T02520159  RH  056%=      5-min Rain = 0
KHA3 231508Z 16019KT 25/16 A2989 RMK A01 T02530160  RH  056%=      5-min Rain = 0
KHA3 231509Z 16016KT 26/16 A2989 RMK A01 T02550161  RH  056%=      5-min Rain = 0
KHA3 231510Z 16017G22KT 26/16 A2989 RMK A01 T02570163  RH  056%=      5-min Rain = 0
KHA3 231511Z 15021G26KT 26/16 A2988 RMK A01 T02580160  RH  055%=      5-min Rain = 0
KHA3 231512Z 15025G30KT 26/16 A2988 RMK A01 T02570158  RH  054%=      5-min Rain = 0
KHA3 231513Z 15027G33KT 26/16 A2988 RMK A01 T02550156  RH  054%=      5-min Rain = 0
KHA3 231514Z 14027KT 25/15 A2988 RMK A01 T02520154  RH  055%=      5-min Rain = 0
KHA3 231515Z 14023G28KT 25/16 A2988 RMK A01 T02500155  RH  055%=      5-min Rain = 0
KHA3 231516Z 14023G30KT 25/16 A2988 RMK A01 T02510155  RH  055%=      5-min Rain = 0
KHA3 231517Z 15024G30KT 25/16 A2988 RMK A01 T02510155  RH  055%=      5-min Rain = 0
KHA3 231518Z 15024G32KT 25/16 A2988 RMK A01 T02510156  RH  055%=      5-min Rain = 0
KHA3 231519Z 15024G29KT 25/16 A2988 RMK A01 T02510156  RH  055%=      5-min Rain = 0
KHA3 231520Z 15020G26KT 25/16 A2988 RMK A01 T02520157  RH  056%=      5-min Rain = 0
KHA3 231521Z 14025KT 25/16 A2988 RMK A01 T02530156  RH  055%=      5-min Rain = 0
KHA3 231522Z 15022G29KT 25/16 A2988 RMK A01 T02530155  RH  055%=      5-min Rain = 0
KHA3 231523Z 14021G28KT 25/16 A2988 RMK A01 T02530155  RH  054%=      5-min Rain = 0
KHA3 231524Z 15020KT 25/16 A2988 RMK A01 T02540156  RH  055%=      5-min Rain = 0
KHA3 231525Z 14021KT 26/16 A2988 RMK A01 T02550155  RH  054%=      5-min Rain = 0
KHA3 231526Z 14024KT 26/16 A2988 RMK A01 T02560156  RH  054%=      5-min Rain = 0
KHA3 231527Z 14019G24KT 26/16 A2988 RMK A01 T02570158  RH  054%=      5-min Rain = 0
KHA3 231528Z 15018KT 26/16 A2988 RMK A01 T02600162  RH  055%=      5-min Rain = 0
KHA3 231529Z 16024KT 26/16 A2988 RMK A01 T02620159  RH  053%=      5-min Rain = 0
KHA3 231530Z 15027G34KT 26/16 A2988 RMK A01 T02590157  RH  053%=      5-min Rain = 0
KHA3 231531Z 15026G31KT 26/16 A2988 RMK A01 T02570156  RH  054%=      5-min Rain = 0
KHA3 231532Z 15024G30KT 26/16 A2988 RMK A01 T02560156  RH  054%=      5-min Rain = 0
KHA3 231533Z 15026G31KT 26/15 A2988 RMK A01 T02560154  RH  053%=      5-min Rain = 0
KHA3 231534Z 14025G30KT 26/15 A2988 RMK A01 T02560154  RH  053%=      5-min Rain = 0
KHA3 231535Z 15023KT 26/15 A2988 RMK A01 T02560154  RH  053%=      5-min Rain = 0
KHA3 231536Z 15027G33KT 26/15 A2988 RMK A01 T02570154  RH  053%=      5-min Rain = 0
KHA3 231537Z 14024G33KT 26/15 A2988 RMK A01 T02580154  RH  052%=      5-min Rain = 0
KHA3 231538Z 15021G28KT 26/16 A2988 RMK A01 T02580155  RH  053%=      5-min Rain = 0
KHA3 231539Z 14022KT 26/15 A2988 RMK A01 T02590154  RH  052%=      5-min Rain = 0
KHA3 231540Z 15018G24KT 26/16 A2988 RMK A01 T02590155  RH  053%=      5-min Rain = 0
KHA3 231541Z 14023G31KT 26/16 A2988 RMK A01 T02610156  RH  052%=      5-min Rain = 0
KHA3 231542Z 15025KT 26/15 A2988 RMK A01 T02610154  RH  051%=      5-min Rain = 0
KHA3 231543Z 15026G33KT 26/15 A2988 RMK A01 T02600153  RH  052%=      5-min Rain = 0
KHA3 231544Z 15022G28KT 26/15 A2988 RMK A01 T02580154  RH  052%=      5-min Rain = 0
KHA3 231545Z 16019G24KT 26/16 A2988 RMK A01 T02600155  RH  052%=      5-min Rain = 0
KHA3 231546Z 16019G24KT 26/16 A2988 RMK A01 T02630157  RH  052%=      5-min Rain = 0
KHA3 231547Z 16022G27KT 27/16 A2988 RMK A01 T02660157  RH  051%=      5-min Rain = 0
KHA3 231548Z 16025G32KT 27/16 A2987 RMK A01 T02670156  RH  051%=      5-min Rain = 0
KHA3 231549Z 16027KT 27/16 A2987 RMK A01 T02660155  RH  050%=      5-min Rain = 0
KHA3 231550Z 16024G29KT 27/16 A2987 RMK A01 T02650156  RH  051%=      5-min Rain = 0
KHA3 231551Z 16024G30KT 26/16 A2987 RMK A01 T02640157  RH  052%=      5-min Rain = 0
KHA3 231552Z 16026G31KT 26/16 A2987 RMK A01 T02640155  RH  051%=      5-min Rain = 0
KHA3 231553Z 16026G31KT 26/16 A2987 RMK A01 T02630156  RH  052%=      5-min Rain = 0
KHA3 231554Z 15029G34KT 26/16 A2988 RMK A01 T02610155  RH  052%=      5-min Rain = 0
KHA3 231555Z 15020G29KT 26/16 A2988 RMK A01 T02620157  RH  052%=      5-min Rain = 0
KHA3 231556Z 15026KT 27/16 A2988 RMK A01 T02650158  RH  052%=      5-min Rain = 0
KHA3 231557Z 16022G28KT 27/16 A2988 RMK A01 T02660158  RH  052%=      5-min Rain = 0
KHA3 231558Z 15026G33KT 27/16 A2988 RMK A01 T02670160  RH  052%=      5-min Rain = 0
KHA3 231559Z 15028KT 27/16 A2988 RMK A01 T02670159  RH  051%=      5-min Rain = 0
KHA3 231600Z 16027G34KT 27/16 A2987 RMK A01 T02650160  RH  052%=      5-min Rain = 0
KHA3 231601Z 16027KT 27/16 A2988 RMK A01 T02650160  RH  053%=      5-min Rain = 0
KHA3 231602Z 16025G31KT 26/16 A2988 RMK A01 T02640160  RH  052%=      5-min Rain = 0
KHA3 231603Z 16021G26KT 27/16 A2988 RMK A01 T02650160  RH  053%=      5-min Rain = 0
KHA3 231604Z 16021G26KT 27/16 A2988 RMK A01 T02680163  RH  052%=      5-min Rain = 0
KHA3 231605Z 16025KT 27/16 A2988 RMK A01 T02710164  RH  052%=      5-min Rain = 0
KHA3 231606Z 16024KT 27/17 A2988 RMK A01 T02710165  RH  052%=      5-min Rain = 0
KHA3 231607Z 16026G31KT 27/16 A2987 RMK A01 T02710164  RH  052%=      5-min Rain = 0
KHA3 231608Z 16023KT 27/16 A2987 RMK A01 T02700164  RH  052%=      5-min Rain = 0
KHA3 231609Z 15026G31KT 27/16 A2988 RMK A01 T02700164  RH  052%=      5-min Rain = 0
KHA3 231610Z 16026KT 27/16 A2987 RMK A01 T02700163  RH  052%=      5-min Rain = 0
KHA3 231611Z 15022KT 27/16 A2988 RMK A01 T02690164  RH  053%=      5-min Rain = 0
KHA3 231612Z 14025G30KT 27/17 A2988 RMK A01 T02700166  RH  053%=      5-min Rain = 0
KHA3 231613Z 15020KT 27/17 A2988 RMK A01 T02710168  RH  053%=      5-min Rain = 0
KHA3 231614Z 16023G29KT 27/17 A2988 RMK A01 T02740168  RH  052%=      5-min Rain = 0
KHA3 231615Z 15025G31KT 27/17 A2988 RMK A01 T02740168  RH  052%=      5-min Rain = 0
KHA3 231616Z 16025KT 27/17 A2988 RMK A01 T02730168  RH  053%=      5-min Rain = 0
KHA3 231617Z 17024G30KT 27/17 A2987 RMK A01 T02730169  RH  053%=      5-min Rain = 0
KHA3 231618Z 17026G31KT 27/17 A2987 RMK A01 T02730169  RH  053%=      5-min Rain = 0
KHA3 231619Z 17025KT 27/17 A2987 RMK A01 T02730171  RH  054%=      5-min Rain = 0
KHA3 231620Z 16026KT 27/17 A2987 RMK A01 T02730173  RH  054%=      5-min Rain = 0
KHA3 231621Z 16024G29KT 27/17 A2987 RMK A01 T02720172  RH  054%=      5-min Rain = 0
KHA3 231622Z 16023KT 27/17 A2987 RMK A01 T02740174  RH  054%=      5-min Rain = 0
KHA3 231623Z 15026KT 28/17 A2987 RMK A01 T02750173  RH  054%=      5-min Rain = 0
KHA3 231624Z 16022G28KT 27/17 A2988 RMK A01 T02740174  RH  054%=      5-min Rain = 0
KHA3 231625Z 15023G29KT 28/18 A2988 RMK A01 T02750175  RH  054%=      5-min Rain = 0
KHA3 231626Z 16020G25KT 28/18 A2988 RMK A01 T02770176  RH  054%=      5-min Rain = 0
KHA3 231627Z 17018G23KT 28/18 A2987 RMK A01 T02790179  RH  054%=      5-min Rain = 0
KHA3 231628Z 16020G25KT 28/18 A2987 RMK A01 T02820180  RH  054%=      5-min Rain = 0
KHA3 231629Z 17023G32KT 28/18 A2987 RMK A01 T02830180  RH  054%=      5-min Rain = 0
KHA3 231630Z 16023G30KT 28/18 A2987 RMK A01 T02820180  RH  054%=      5-min Rain = 0
KHA3 231631Z 16027G32KT 28/18 A2987 RMK A01 T02800181  RH  055%=      5-min Rain = 0
KHA3 231632Z 15023G30KT 28/18 A2987 RMK A01 T02770181  RH  056%=      5-min Rain = 0
KHA3 231633Z 15019G24KT 28/18 A2987 RMK A01 T02780183  RH  056%=      5-min Rain = 0
KHA3 231634Z 15025G30KT 28/18 A2987 RMK A01 T02810181  RH  055%=      5-min Rain = 0
KHA3 231635Z 15025KT 28/18 A2987 RMK A01 T02800180  RH  055%=      5-min Rain = 0
KHA3 231636Z 16023G29KT 28/18 A2987 RMK A01 T02780179  RH  055%=      5-min Rain = 0
KHA3 231637Z 17025G31KT 28/18 A2987 RMK A01 T02770178  RH  055%=      5-min Rain = 0
KHA3 231638Z 15024KT 28/18 A2987 RMK A01 T02760179  RH  055%=      5-min Rain = 0
KHA3 231639Z 15024G29KT 28/18 A2987 RMK A01 T02770179  RH  055%=      5-min Rain = 0
KHA3 231640Z 15029KT 28/18 A2987 RMK A01 T02780179  RH  055%=      5-min Rain = 0
KHA3 231641Z 16024KT 28/18 A2987 RMK A01 T02760179  RH  055%=      5-min Rain = 0
KHA3 231642Z 16025G34KT 28/18 A2987 RMK A01 T02770181  RH  056%=      5-min Rain = 0
KHA3 231643Z 15025G30KT 28/18 A2987 RMK A01 T02780179  RH  055%=      5-min Rain = 0
KHA3 231644Z 15023G28KT 28/18 A2987 RMK A01 T02780178  RH  054%=      5-min Rain = 0
KHA3 231645Z 17021G28KT 28/18 A2987 RMK A01 T02780180  RH  055%=      5-min Rain = 0
KHA3 231646Z 17021G26KT 28/18 A2987 RMK A01 T02820181  RH  054%=      5-min Rain = 0
KHA3 231647Z 17020G26KT 28/18 A2987 RMK A01 T02840181  RH  053%=      5-min Rain = 0
KHA3 231648Z 17021KT 29/18 A2987 RMK A01 T02850180  RH  053%=      5-min Rain = 0
KHA3 231649Z 16022G27KT 28/18 A2987 RMK A01 T02830178  RH  053%=      5-min Rain = 0
KHA3 231650Z 16022KT 28/18 A2987 RMK A01 T02820179  RH  054%=      5-min Rain = 0
KHA3 231651Z 16025G30KT 28/18 A2987 RMK A01 T02820179  RH  054%=      5-min Rain = 0
KHA3 231652Z 16025G31KT 28/18 A2987 RMK A01 T02820178  RH  053%=      5-min Rain = 0
KHA3 231653Z 16024G30KT 28/18 A2987 RMK A01 T02810177  RH  053%=      5-min Rain = 0
KHA3 231654Z 16024G32KT 28/18 A2987 RMK A01 T02800177  RH  054%=      5-min Rain = 0
KHA3 231655Z 16025G31KT 28/18 A2986 RMK A01 T02810177  RH  053%=      5-min Rain = 0
KHA3 231656Z 16021G31KT 28/18 A2987 RMK A01 T02820181  RH  054%=      5-min Rain = 0
KHA3 231657Z 17025KT 29/18 A2986 RMK A01 T02850178  RH  052%=      5-min Rain = 0
KHA3 231658Z 16022G27KT 28/18 A2987 RMK A01 T02840180  RH  053%=      5-min Rain = 0
KHA3 231659Z 16020G25KT 29/18 A2987 RMK A01 T02850180  RH  053%=      5-min Rain = 0
KHA3 231700Z 15023KT 29/18 A2986 RMK A01 T02860180  RH  053%=      5-min Rain = 0
KHA3 231701Z 15026KT 29/18 A2986 RMK A01 T02860179  RH  052%=      5-min Rain = 0
KHA3 231702Z 16022G27KT 28/18 A2986 RMK A01 T02830178  RH  053%=      5-min Rain = 0
KHA3 231703Z 15022G27KT 28/18 A2986 RMK A01 T02830179  RH  053%=      5-min Rain = 0
KHA3 231704Z 15021G27KT 28/18 A2986 RMK A01 T02840179  RH  053%=      5-min Rain = 0
KHA3 231705Z 17020G28KT 29/18 A2987 RMK A01 T02860183  RH  054%=      5-min Rain = 0
KHA3 231706Z 16022KT 29/18 A2986 RMK A01 T02880182  RH  052%=      5-min Rain = 0
KHA3 231707Z 16024G29KT 29/18 A2986 RMK A01 T02880181  RH  052%=      5-min Rain = 0
KHA3 231708Z 15021G27KT 29/18 A2986 RMK A01 T02860180  RH  053%=      5-min Rain = 0
KHA3 231709Z 15022G28KT 29/18 A2986 RMK A01 T02850182  RH  054%=      5-min Rain = 0
KHA3 231710Z 15023G29KT 29/18 A2986 RMK A01 T02850180  RH  053%=      5-min Rain = 0
KHA3 231711Z 15024G29KT 28/18 A2986 RMK A01 T02830181  RH  054%=      5-min Rain = 0
KHA3 231712Z 16026KT 28/18 A2986 RMK A01 T02830180  RH  054%=      5-min Rain = 0
KHA3 231713Z 16022KT 28/18 A2986 RMK A01 T02830182  RH  054%=      5-min Rain = 0
KHA3 231714Z 16024G29KT 28/18 A2986 RMK A01 T02830182  RH  054%=      5-min Rain = 0
KHA3 231715Z 16022KT 28/18 A2986 RMK A01 T02840183  RH  054%=      5-min Rain = 0
KHA3 231716Z 16020KT 29/18 A2986 RMK A01 T02850183  RH  054%=      5-min Rain = 0
KHA3 231717Z 17021G26KT 29/18 A2986 RMK A01 T02850183  RH  054%=      5-min Rain = 0
KHA3 231718Z 17023G29KT 29/18 A2986 RMK A01 T02870182  RH  053%=      5-min Rain = 0
KHA3 231719Z 15020G25KT 29/18 A2986 RMK A01 T02860182  RH  053%=      5-min Rain = 0
KHA3 231720Z 15017KT 29/18 A2986 RMK A01 T02860184  RH  054%=      5-min Rain = 0
KHA3 231721Z 14021KT 29/18 A2986 RMK A01 T02890183  RH  052%=      5-min Rain = 0
KHA3 231722Z 16023G29KT 29/18 A2986 RMK A01 T02870182  RH  053%=      5-min Rain = 0
KHA3 231723Z 15020KT 29/18 A2986 RMK A01 T02850183  RH  054%=      5-min Rain = 0
KHA3 231724Z 15019KT 29/18 A2986 RMK A01 T02850184  RH  054%=      5-min Rain = 0
KHA3 231725Z 16022G27KT 29/19 A2986 RMK A01 T02880188  RH  054%=      5-min Rain = 0
KHA3 231726Z 15023G31KT 29/19 A2986 RMK A01 T02900187  RH  054%=      5-min Rain = 0
KHA3 231727Z 16021G27KT 29/19 A2986 RMK A01 T02900187  RH  054%=      5-min Rain = 0
KHA3 231728Z 15021G27KT 29/19 A2986 RMK A01 T02900186  RH  053%=      5-min Rain = 0
KHA3 231729Z 15018KT 29/19 A2986 RMK A01 T02900188  RH  054%=      5-min Rain = 0
KHA3 231730Z 16024KT 29/19 A2986 RMK A01 T02910187  RH  053%=      5-min Rain = 0
KHA3 231731Z 16022G27KT 29/19 A2986 RMK A01 T02900185  RH  053%=      5-min Rain = 0
KHA3 231732Z 16018G23KT 29/19 A2986 RMK A01 T02880186  RH  054%=      5-min Rain = 0
KHA3 231733Z 16018G25KT 29/19 A2986 RMK A01 T02890188  RH  054%=      5-min Rain = 0
KHA3 231734Z 16024KT 29/19 A2985 RMK A01 T02900189  RH  054%=      5-min Rain = 0
KHA3 231735Z 17023KT 29/19 A2986 RMK A01 T02920189  RH  054%=      5-min Rain = 0
KHA3 231736Z 17019KT 29/19 A2986 RMK A01 T02920192  RH  055%=      5-min Rain = 0
KHA3 231737Z 17025KT 29/19 A2985 RMK A01 T02940190  RH  053%=      5-min Rain = 0
KHA3 231738Z 18022G27KT 29/19 A2985 RMK A01 T02920189  RH  054%=      5-min Rain = 0
KHA3 231739Z 16020KT 29/19 A2985 RMK A01 T02920190  RH  054%=      5-min Rain = 0
KHA3 231740Z 16019G24KT 29/19 A2985 RMK A01 T02920191  RH  054%=      5-min Rain = 0
KHA3 231741Z 16022KT 29/19 A2985 RMK A01 T02930190  RH  054%=      5-min Rain = 0
KHA3 231742Z 17024G30KT 29/19 A2985 RMK A01 T02920190  RH  054%=      5-min Rain = 0
KHA3 231743Z 17022G29KT 29/19 A2985 RMK A01 T02920190  RH  054%=      5-min Rain = 0
KHA3 231744Z 17019KT 29/19 A2985 RMK A01 T02930190  RH  054%=      5-min Rain = 0
KHA3 231745Z 18021G27KT 29/19 A2985 RMK A01 T02920191  RH  055%=      5-min Rain = 0
KHA3 231746Z 17022KT 30/19 A2985 RMK A01 T02950191  RH  054%=      5-min Rain = 0
KHA3 231747Z 17022KT 30/19 A2985 RMK A01 T02950190  RH  053%=      5-min Rain = 0
KHA3 231748Z 17019KT 29/19 A2985 RMK A01 T02930192  RH  054%=      5-min Rain = 0
KHA3 231749Z 16019G25KT 29/19 A2985 RMK A01 T02940192  RH  054%=      5-min Rain = 0
KHA3 231750Z 15019KT 29/19 A2985 RMK A01 T02940192  RH  054%=      5-min Rain = 0
KHA3 231751Z 14018G23KT 29/19 A2985 RMK A01 T02940191  RH  054%=      5-min Rain = 0
KHA3 231752Z 16017KT 29/19 A2985 RMK A01 T02910191  RH  055%=      5-min Rain = 0
KHA3 231753Z 17018G25KT 29/20 A2984 RMK A01 T02940195  RH  055%=      5-min Rain = 0
KHA3 231754Z 16023G29KT 30/19 A2984 RMK A01 T02980193  RH  054%=      5-min Rain = 0
KHA3 231755Z 15019KT 30/19 A2984 RMK A01 T02970194  RH  054%=      5-min Rain = 0
KHA3 231756Z 15017G26KT 30/20 A2984 RMK A01 T02970196  RH  054%=      5-min Rain = 0
KHA3 231757Z 17022G28KT 30/19 A2984 RMK A01 T02990194  RH  053%=      5-min Rain = 0
KHA3 231758Z 17020KT 30/19 A2984 RMK A01 T02960192  RH  054%=      5-min Rain = 0
KHA3 231759Z 15019G24KT 29/19 A2984 RMK A01 T02920194  RH  055%=      5-min Rain = 0
KHA3 231800Z 16024G29KT 29/19 A2984 RMK A01 T02940193  RH  055%=      5-min Rain = 0
KHA3 231801Z 16022KT 29/19 A2984 RMK A01 T02930193  RH  055%=      5-min Rain = 0
KHA3 231802Z 15022KT 29/19 A2984 RMK A01 T02940194  RH  055%=      5-min Rain = 0
KHA3 231803Z 15021KT 30/20 A2984 RMK A01 T02950195  RH  055%=      5-min Rain = 0
KHA3 231804Z 14020G26KT 30/19 A2984 RMK A01 T02970194  RH  054%=      5-min Rain = 0
KHA3 231805Z 15015G20KT 30/20 A2984 RMK A01 T02960195  RH  054%=      5-min Rain = 0
KHA3 231806Z 16019KT 30/20 A2984 RMK A01 T02970197  RH  055%=      5-min Rain = 0
KHA3 231807Z 17023G29KT 30/20 A2984 RMK A01 T02990195  RH  054%=      5-min Rain = 0
KHA3 231808Z 18019KT 30/20 A2984 RMK A01 T02970195  RH  054%=      5-min Rain = 0
KHA3 231809Z 16021KT 30/20 A2984 RMK A01 T02970195  RH  054%=      5-min Rain = 0
KHA3 231810Z 16021G26KT 30/20 A2984 RMK A01 T02960195  RH  055%=      5-min Rain = 0
KHA3 231811Z 17018G24KT 30/19 A2984 RMK A01 T02950194  RH  055%=      5-min Rain = 0
KHA3 231812Z 15019G24KT 30/20 A2984 RMK A01 T02950197  RH  055%=      5-min Rain = 0
KHA3 231813Z 15018KT 30/20 A2984 RMK A01 T02980195  RH  054%=      5-min Rain = 0
KHA3 231814Z 15020G26KT 30/20 A2984 RMK A01 T02980195  RH  054%=      5-min Rain = 0
KHA3 231815Z 16018G23KT 30/20 A2984 RMK A01 T02980196  RH  054%=      5-min Rain = 0
KHA3 231816Z 15022G27KT 30/20 A2984 RMK A01 T02990197  RH  054%=      5-min Rain = 0
KHA3 231817Z 16021KT 30/20 A2984 RMK A01 T03010195  RH  053%=      5-min Rain = 0
KHA3 231818Z 16020KT 30/20 A2983 RMK A01 T03010197  RH  054%=      5-min Rain = 0
KHA3 231819Z 15016KT 30/20 A2984 RMK A01 T03010195  RH  053%=      5-min Rain = 0
KHA3 231820Z 16019G25KT 30/20 A2983 RMK A01 T02990197  RH  054%=      5-min Rain = 0
KHA3 231821Z 17023G29KT 30/20 A2983 RMK A01 T03000195  RH  053%=      5-min Rain = 0
KHA3 231822Z 17019G25KT 30/20 A2983 RMK A01 T02990197  RH  054%=      5-min Rain = 0
KHA3 231823Z 17021KT 30/20 A2983 RMK A01 T03000195  RH  053%=      5-min Rain = 0
KHA3 231824Z 16020KT 30/20 A2983 RMK A01 T02980195  RH  054%=      5-min Rain = 0
KHA3 231825Z 17021G27KT 30/19 A2983 RMK A01 T02960194  RH  054%=      5-min Rain = 0
KHA3 231826Z 17024KT 30/19 A2983 RMK A01 T02960194  RH  054%=      5-min Rain = 0
KHA3 231827Z 18021KT 30/20 A2983 RMK A01 T02970195  RH  054%=      5-min Rain = 0
KHA3 231828Z 18023G29KT 30/19 A2983 RMK A01 T02960194  RH  054%=      5-min Rain = 0
KHA3 231829Z 18023KT 30/19 A2983 RMK A01 T02950194  RH  055%=      5-min Rain = 0
KHA3 231830Z 18018KT 30/19 A2983 RMK A01 T02950194  RH  055%=      5-min Rain = 0
KHA3 231831Z 18020KT 30/20 A2983 RMK A01 T02960196  RH  055%=      5-min Rain = 0
KHA3 231832Z 18017KT 30/20 A2983 RMK A01 T02980196  RH  054%=      5-min Rain = 0
KHA3 231833Z 17022G27KT 30/20 A2983 RMK A01 T03000197  RH  054%=      5-min Rain = 0
KHA3 231834Z 16025G30KT 30/20 A2983 RMK A01 T03010196  RH  053%=      5-min Rain = 0
KHA3 231835Z 17021G27KT 30/20 A2983 RMK A01 T03020197  RH  054%=      5-min Rain = 0
KHA3 231836Z 18023KT 30/20 A2983 RMK A01 T03030197  RH  053%=      5-min Rain = 0
KHA3 231837Z 18018KT 30/20 A2983 RMK A01 T03030196  RH  053%=      5-min Rain = 0
KHA3 231838Z 17022KT 30/20 A2983 RMK A01 T03020198  RH  054%=      5-min Rain = 0
KHA3 231839Z 17019G24KT 30/20 A2983 RMK A01 T03040198  RH  053%=      5-min Rain = 0
KHA3 231840Z 18021KT 31/20 A2983 RMK A01 T03060198  RH  052%=      5-min Rain = 0
KHA3 231841Z 18019KT 31/20 A2982 RMK A01 T03050197  RH  053%=      5-min Rain = 0
KHA3 231842Z 18016KT 30/20 A2982 RMK A01 T03030198  RH  054%=      5-min Rain = 0
KHA3 231843Z 17024KT 30/20 A2982 RMK A01 T03020197  RH  053%=      5-min Rain = 0
KHA3 231844Z 17023G28KT 30/20 A2982 RMK A01 T03030197  RH  053%=      5-min Rain = 0
KHA3 231845Z 15019G24KT 30/20 A2982 RMK A01 T03030197  RH  053%=      5-min Rain = 0
KHA3 231846Z 17023KT 30/20 A2982 RMK A01 T03030198  RH  053%=      5-min Rain = 0
KHA3 231847Z 17022KT 30/20 A2982 RMK A01 T03030197  RH  053%=      5-min Rain = 0
KHA3 231848Z 17021G26KT 30/20 A2982 RMK A01 T03030197  RH  053%=      5-min Rain = 0
KHA3 231849Z 17017KT 30/20 A2982 RMK A01 T03030199  RH  054%=      5-min Rain = 0
KHA3 231850Z 17020KT 31/20 A2982 RMK A01 T03060199  RH  053%=      5-min Rain = 0
KHA3 231851Z 16019G24KT 31/20 A2981 RMK A01 T03060200  RH  053%=      5-min Rain = 0
KHA3 231852Z 16022G27KT 31/20 A2981 RMK A01 T03070198  RH  052%=      5-min Rain = 0
KHA3 231853Z 15020G25KT 31/20 A2981 RMK A01 T03060199  RH  053%=      5-min Rain = 0
KHA3 231854Z 15019KT 30/20 A2981 RMK A01 T03030197  RH  053%=      5-min Rain = 0
KHA3 231855Z 15021KT 30/20 A2981 RMK A01 T03040200  RH  054%=      5-min Rain = 0
KHA3 231856Z 16018KT 31/20 A2981 RMK A01 T03080201  RH  053%=      5-min Rain = 0
KHA3 231857Z 17021G27KT 31/20 A2981 RMK A01 T03110201  RH  052%=      5-min Rain = 0
KHA3 231858Z 16021KT 31/20 A2981 RMK A01 T03110200  RH  052%=      5-min Rain = 0
KHA3 231859Z 18016G21KT 31/20 A2981 RMK A01 T03120203  RH  052%=      5-min Rain = 0
KHA3 231900Z 17021KT 32/20 A2981 RMK A01 T03150202  RH  051%=      5-min Rain = 0
KHA3 231901Z 16024KT 31/20 A2981 RMK A01 T03140201  RH  051%=      5-min Rain = 0
KHA3 231902Z 17022KT 31/20 A2981 RMK A01 T03110199  RH  051%=      5-min Rain = 0
KHA3 231903Z 17025G31KT 31/20 A2981 RMK A01 T03090199  RH  052%=      5-min Rain = 0
KHA3 231904Z 17024G33KT 31/20 A2981 RMK A01 T03060197  RH  052%=      5-min Rain = 0
KHA3 231905Z 17019G26KT 31/20 A2981 RMK A01 T03060198  RH  053%=      5-min Rain = 0
KHA3 231906Z 16018KT 31/20 A2981 RMK A01 T03090201  RH  053%=      5-min Rain = 0
KHA3 231907Z 18020KT 31/20 A2981 RMK A01 T03120200  RH  052%=      5-min Rain = 0
KHA3 231908Z 18016KT 31/20 A2981 RMK A01 T03110200  RH  052%=      5-min Rain = 0
KHA3 231909Z 17019KT 31/20 A2981 RMK A01 T03110203  RH  053%=      5-min Rain = 0
KHA3 231910Z 18022KT 31/20 A2981 RMK A01 T03130200  RH  051%=      5-min Rain = 0
KHA3 231911Z 18020G26KT 31/20 A298 RMK A01 T03130200  RH  051%=      5-min Rain = 0
KHA3 231912Z 17024G30KT 31/20 A298 RMK A01 T03130200  RH  051%=      5-min Rain = 0
KHA3 231913Z 16021G26KT 31/20 A2981 RMK A01 T03130201  RH  051%=      5-min Rain = 0
KHA3 231914Z 17023KT 31/20 A298 RMK A01 T03120200  RH  051%=      5-min Rain = 0
KHA3 231915Z 17021KT 31/20 A298 RMK A01 T03110199  RH  051%=      5-min Rain = 0
KHA3 231916Z 17023KT 31/20 A298 RMK A01 T03100200  RH  052%=      5-min Rain = 0
KHA3 231917Z 17018KT 31/20 A298 RMK A01 T03080199  RH  052%=      5-min Rain = 0
KHA3 231918Z 16017KT 31/20 A2981 RMK A01 T03090203  RH  053%=      5-min Rain = 0
KHA3 231919Z 17018KT 31/20 A298 RMK A01 T03120201  RH  052%=      5-min Rain = 0
KHA3 231920Z 18017G22KT 31/20 A298 RMK A01 T03100201  RH  052%=      5-min Rain = 0
KHA3 231921Z 18020KT 31/20 A298 RMK A01 T03100200  RH  052%=      5-min Rain = 0
KHA3 231922Z 18020G26KT 31/20 A298 RMK A01 T03120199  RH  051%=      5-min Rain = 0
KHA3 231923Z 18023KT 31/20 A298 RMK A01 T03130199  RH  051%=      5-min Rain = 0
KHA3 231924Z 18019KT 31/20 A298 RMK A01 T03130200  RH  051%=      5-min Rain = 0
KHA3 231925Z 18023KT 31/20 A298 RMK A01 T03120200  RH  051%=      5-min Rain = 0
KHA3 231926Z 18021KT 31/20 A298 RMK A01 T03120200  RH  051%=      5-min Rain = 0
KHA3 231927Z 17023KT 31/20 A298 RMK A01 T03120197  RH  051%=      5-min Rain = 0
KHA3 231928Z 18018G24KT 31/20 A298 RMK A01 T03120199  RH  051%=      5-min Rain = 0
KHA3 231929Z 18019G24KT 31/20 A298 RMK A01 T03130200  RH  051%=      5-min Rain = 0
KHA3 231930Z 17019KT 32/20 A298 RMK A01 T03160202  RH  051%=      5-min Rain = 0
KHA3 231931Z 17018KT 32/20 A298 RMK A01 T03180202  RH  050%=      5-min Rain = 0
KHA3 231932Z 18018KT 32/20 A298 RMK A01 T03170201  RH  050%=      5-min Rain = 0
KHA3 231933Z 18020KT 32/20 A298 RMK A01 T03150201  RH  051%=      5-min Rain = 0
KHA3 231934Z 17021G26KT 32/20 A298 RMK A01 T03150202  RH  051%=      5-min Rain = 0
KHA3 231935Z 18021G26KT 32/20 A298 RMK A01 T03170201  RH  050%=      5-min Rain = 0
KHA3 231936Z 18021G26KT 32/20 A298 RMK A01 T03170201  RH  050%=      5-min Rain = 0
KHA3 231937Z 18021KT 32/20 A298 RMK A01 T03170200  RH  050%=      5-min Rain = 0
KHA3 231938Z 19021KT 32/20 A2979 RMK A01 T03170201  RH  050%=      5-min Rain = 0
KHA3 231939Z 19020G26KT 32/20 A2979 RMK A01 T03160200  RH  050%=      5-min Rain = 0
KHA3 231940Z 18023G28KT 32/20 A2979 RMK A01 T03170202  RH  051%=      5-min Rain = 0
KHA3 231941Z 17021KT 32/20 A298 RMK A01 T03190201  RH  050%=      5-min Rain = 0
KHA3 231942Z 18019KT 32/20 A298 RMK A01 T03190202  RH  050%=      5-min Rain = 0
KHA3 231943Z 18020G27KT 32/20 A298 RMK A01 T03210203  RH  050%=      5-min Rain = 0
KHA3 231944Z 18020KT 32/20 A298 RMK A01 T03210201  RH  049%=      5-min Rain = 0
KHA3 231945Z 18018G23KT 32/20 A2979 RMK A01 T03190202  RH  050%=      5-min Rain = 0
KHA3 231946Z 17021KT 32/20 A298 RMK A01 T03180200  RH  050%=      5-min Rain = 0
KHA3 231947Z 17020G27KT 32/20 A2979 RMK A01 T03150202  RH  051%=      5-min Rain = 0
KHA3 231948Z 18023KT 32/20 A2979 RMK A01 T03170201  RH  050%=      5-min Rain = 0
KHA3 231949Z 17023G28KT 32/20 A2979 RMK A01 T03160200  RH  050%=      5-min Rain = 0
KHA3 231950Z 17022KT 31/20 A2979 RMK A01 T03130198  RH  051%=      5-min Rain = 0
KHA3 231951Z 16023G29KT 31/20 A2979 RMK A01 T03130198  RH  050%=      5-min Rain = 0
KHA3 231952Z 16022KT 32/20 A2979 RMK A01 T03150200  RH  051%=      5-min Rain = 0
KHA3 231953Z 17024KT 32/20 A2979 RMK A01 T03150199  RH  050%=      5-min Rain = 0
KHA3 231954Z 17022G28KT 32/20 A2979 RMK A01 T03160202  RH  051%=      5-min Rain = 0
KHA3 231955Z 17023G30KT 32/20 A2979 RMK A01 T03180201  RH  050%=      5-min Rain = 0
KHA3 231956Z 18021G26KT 32/20 A2979 RMK A01 T03190200  RH  050%=      5-min Rain = 0
KHA3 231957Z 17021KT 32/20 A2979 RMK A01 T03190201  RH  050%=      5-min Rain = 0
KHA3 231958Z 19018KT 32/20 A2979 RMK A01 T03190201  RH  050%=      5-min Rain = 0
KHA3 231959Z 18017KT 32/20 A2979 RMK A01 T03220203  RH  049%=      5-min Rain = 0
KHA3 232000Z 17016G22KT 32/20 A2979 RMK A01 T03220204  RH  050%=      5-min Rain = 0
KHA3 232001Z 17021KT 33/20 A2979 RMK A01 T03250203  RH  049%=      5-min Rain = 0
KHA3 232002Z 18020KT 33/20 A2979 RMK A01 T03250202  RH  048%=      5-min Rain = 0
KHA3 232003Z 16021KT 33/20 A2979 RMK A01 T03260204  RH  049%=      5-min Rain = 0
KHA3 232004Z 16024KT 33/20 A2979 RMK A01 T03250199  RH  047%=      5-min Rain = 0
KHA3 232005Z 17020KT 32/20 A2979 RMK A01 T03200198  RH  049%=      5-min Rain = 0
KHA3 232006Z 18020KT 32/20 A2978 RMK A01 T03200200  RH  049%=      5-min Rain = 0
KHA3 232007Z 17021KT 32/20 A2979 RMK A01 T03210202  RH  049%=      5-min Rain = 0
KHA3 232008Z 16020KT 32/20 A2979 RMK A01 T03220200  RH  049%=      5-min Rain = 0
KHA3 232009Z 16019KT 32/20 A2978 RMK A01 T03210203  RH  050%=      5-min Rain = 0
KHA3 232010Z 17019G24KT 32/20 A2978 RMK A01 T03220203  RH  049%=      5-min Rain = 0
KHA3 232011Z 18022KT 32/20 A2978 RMK A01 T03210200  RH  049%=      5-min Rain = 0
KHA3 232012Z 18021G26KT 32/20 A2978 RMK A01 T03180201  RH  050%=      5-min Rain = 0
KHA3 232013Z 18021G27KT 32/20 A2978 RMK A01 T03170201  RH  050%=      5-min Rain = 0
KHA3 232014Z 18019G24KT 32/20 A2978 RMK A01 T03150202  RH  051%=      5-min Rain = 0
KHA3 232015Z 18020G27KT 32/20 A2978 RMK A01 T03170203  RH  051%=      5-min Rain = 0
KHA3 232016Z 16023KT 32/20 A2978 RMK A01 T03190202  RH  050%=      5-min Rain = 0
KHA3 232017Z 18024KT 32/20 A2978 RMK A01 T03200201  RH  049%=      5-min Rain = 0
KHA3 232018Z 19021KT 32/20 A2978 RMK A01 T03180202  RH  050%=      5-min Rain = 0
KHA3 232019Z 19017G22KT 32/20 A2978 RMK A01 T03180200  RH  050%=      5-min Rain = 0
KHA3 232020Z 18018G26KT 32/20 A2978 RMK A01 T03210204  RH  050%=      5-min Rain = 0
KHA3 232021Z 18018KT 33/21 A2978 RMK A01 T03270206  RH  049%=      5-min Rain = 0
KHA3 232022Z 16016KT 33/21 A2978 RMK A01 T03280206  RH  049%=      5-min Rain = 0
KHA3 232023Z 17017G23KT 33/21 A2978 RMK A01 T03270206  RH  049%=      5-min Rain = 0
KHA3 232024Z 18015G22KT 33/21 A2978 RMK A01 T03270209  RH  050%=      5-min Rain = 0
KHA3 232025Z 18019KT 33/21 A2978 RMK A01 T03290206  RH  048%=      5-min Rain = 0
KHA3 232026Z 18017KT 33/20 A2978 RMK A01 T03250204  RH  049%=      5-min Rain = 0
KHA3 232027Z 17016KT 33/21 A2978 RMK A01 T03250208  RH  050%=      5-min Rain = 0
KHA3 232028Z 16018KT 33/21 A2978 RMK A01 T03270205  RH  049%=      5-min Rain = 0
KHA3 232029Z 16022KT 32/20 A2978 RMK A01 T03240203  RH  049%=      5-min Rain = 0
KHA3 232030Z 17021G26KT 32/20 A2978 RMK A01 T03220203  RH  049%=      5-min Rain = 0
KHA3 232031Z 18022KT 32/20 A2978 RMK A01 T03220200  RH  048%=      5-min Rain = 0
KHA3 232032Z 17019KT 32/20 A2978 RMK A01 T03230202  RH  049%=      5-min Rain = 0
KHA3 232033Z 18022KT 32/20 A2978 RMK A01 T03230202  RH  049%=      5-min Rain = 0
KHA3 232034Z 17021KT 32/20 A2978 RMK A01 T03230202  RH  049%=      5-min Rain = 0
KHA3 232035Z 16020KT 32/20 A2978 RMK A01 T03220202  RH  049%=      5-min Rain = 0
KHA3 232036Z 17017KT 32/20 A2978 RMK A01 T03200202  RH  050%=      5-min Rain = 0
KHA3 232037Z 18019KT 32/20 A2978 RMK A01 T03200202  RH  050%=      5-min Rain = 0
KHA3 232038Z 17017KT 32/20 A2977 RMK A01 T03190203  RH  050%=      5-min Rain = 0
KHA3 232039Z 18021G26KT 32/20 A2977 RMK A01 T03200202  RH  050%=      5-min Rain = 0
KHA3 232040Z 17022G28KT 32/20 A2978 RMK A01 T03210201  RH  049%=      5-min Rain = 0
KHA3 232041Z 18023KT 32/20 A2977 RMK A01 T03220200  RH  049%=      5-min Rain = 0
KHA3 232042Z 18022KT 32/20 A2978 RMK A01 T03210200  RH  049%=      5-min Rain = 0
KHA3 232043Z 18021KT 32/20 A2977 RMK A01 T03220198  RH  048%=      5-min Rain = 0
KHA3 232044Z 18021KT 32/20 A2977 RMK A01 T03210197  RH  048%=      5-min Rain = 0
KHA3 232045Z 18020KT 32/20 A2977 RMK A01 T03210198  RH  048%=      5-min Rain = 0
KHA3 232046Z 19018KT 32/20 A2977 RMK A01 T03210200  RH  049%=      5-min Rain = 0
KHA3 232047Z 18021KT 33/20 A2977 RMK A01 T03250201  RH  048%=      5-min Rain = 0
KHA3 232048Z 20019KT 33/20 A2977 RMK A01 T03250201  RH  048%=      5-min Rain = 0
KHA3 232049Z 18020G25KT 32/20 A2977 RMK A01 T03240201  RH  048%=      5-min Rain = 0
KHA3 232050Z 17020KT 33/20 A2977 RMK A01 T03250201  RH  048%=      5-min Rain = 0
KHA3 232051Z 18019KT 33/20 A2977 RMK A01 T03270204  RH  048%=      5-min Rain = 0
KHA3 232052Z 18022KT 33/20 A2977 RMK A01 T03270202  RH  048%=      5-min Rain = 0
KHA3 232053Z 19018G25KT 33/20 A2977 RMK A01 T03250201  RH  048%=      5-min Rain = 0
KHA3 232054Z 19020KT 32/20 A2977 RMK A01 T03240201  RH  049%=      5-min Rain = 0
KHA3 232055Z 19019G24KT 32/20 A2977 RMK A01 T03240201  RH  048%=      5-min Rain = 0
KHA3 232056Z 17019KT 32/20 A2977 RMK A01 T03240201  RH  048%=      5-min Rain = 0
KHA3 232057Z 18019G24KT 32/20 A2977 RMK A01 T03240200  RH  048%=      5-min Rain = 0
KHA3 232058Z 17018G25KT 32/20 A2977 RMK A01 T03210201  RH  049%=      5-min Rain = 0
KHA3 232059Z 18015KT 32/20 A2977 RMK A01 T03240203  RH  049%=      5-min Rain = 0
KHA3 232100Z 19017G22KT 33/20 A2977 RMK A01 T03270201  RH  048%=      5-min Rain = 0
KHA3 232101Z 18021KT 33/20 A2976 RMK A01 T03270199  RH  047%=      5-min Rain = 0
KHA3 232102Z 18017KT 33/20 A2976 RMK A01 T03270201  RH  047%=      5-min Rain = 0
KHA3 232103Z 19018G25KT 33/20 A2976 RMK A01 T03250202  RH  048%=      5-min Rain = 0
KHA3 232104Z 18019KT 33/20 A2976 RMK A01 T03270202  RH  048%=      5-min Rain = 0
KHA3 232105Z 17015KT 33/20 A2977 RMK A01 T03270202  RH  048%=      5-min Rain = 0
KHA3 232106Z 15018KT 33/20 A2976 RMK A01 T03270202  RH  048%=      5-min Rain = 0
KHA3 232107Z 16017KT 33/20 A2976 RMK A01 T03250202  RH  048%=      5-min Rain = 0
KHA3 232108Z 18015KT 33/20 A2976 RMK A01 T03250203  RH  049%=      5-min Rain = 0
KHA3 232109Z 18015KT 33/20 A2976 RMK A01 T03250203  RH  049%=      5-min Rain = 0
KHA3 232110Z 15015KT 33/20 A2976 RMK A01 T03260204  RH  049%=      5-min Rain = 0
KHA3 232111Z 15015G21KT 33/20 A2976 RMK A01 T03260203  RH  048%=      5-min Rain = 0
KHA3 232112Z 16015KT 32/20 A2976 RMK A01 T03240202  RH  049%=      5-min Rain = 0
KHA3 232113Z 16014KT 33/20 A2976 RMK A01 T03250203  RH  049%=      5-min Rain = 0
KHA3 232114Z 16016KT 33/20 A2976 RMK A01 T03260202  RH  048%=      5-min Rain = 0
KHA3 232115Z 17014KT 32/20 A2976 RMK A01 T03240202  RH  049%=      5-min Rain = 0
KHA3 232116Z 17017G24KT 32/20 A2976 RMK A01 T03230200  RH  048%=      5-min Rain = 0
KHA3 232117Z 17020G25KT 32/20 A2976 RMK A01 T03210197  RH  048%=      5-min Rain = 0
KHA3 232118Z 18015KT 32/20 A2976 RMK A01 T03200196  RH  048%=      5-min Rain = 0
KHA3 232119Z 17015KT 32/20 A2976 RMK A01 T03220201  RH  049%=      5-min Rain = 0
KHA3 232120Z 17015KT 33/20 A2975 RMK A01 T03250200  RH  048%=      5-min Rain = 0
KHA3 232121Z 16017KT 33/20 A2975 RMK A01 T03270201  RH  048%=      5-min Rain = 0
KHA3 232122Z 16018KT 33/20 A2975 RMK A01 T03280200  RH  047%=      5-min Rain = 0
KHA3 232123Z 16016KT 33/20 A2975 RMK A01 T03260200  RH  047%=      5-min Rain = 0
KHA3 232124Z 17013KT 33/20 A2975 RMK A01 T03250199  RH  047%=      5-min Rain = 0
KHA3 232125Z 17014KT 33/20 A2975 RMK A01 T03270201  RH  048%=      5-min Rain = 0
KHA3 232126Z 18016G21KT 33/20 A2975 RMK A01 T03280200  RH  047%=      5-min Rain = 0
KHA3 232127Z 18022KT 33/20 A2975 RMK A01 T03300197  RH  046%=      5-min Rain = 0
KHA3 232128Z 17017G22KT 33/20 A2974 RMK A01 T03280196  RH  046%=      5-min Rain = 0
KHA3 232129Z 17019G24KT 33/20 A2974 RMK A01 T03270198  RH  047%=      5-min Rain = 0
KHA3 232130Z 16016KT 33/20 A2974 RMK A01 T03260197  RH  047%=      5-min Rain = 0
KHA3 232131Z 15014KT 33/20 A2974 RMK A01 T03260197  RH  047%=      5-min Rain = 0
KHA3 232132Z 15015KT 33/20 A2974 RMK A01 T03250199  RH  047%=      5-min Rain = 0
KHA3 232133Z 15018G26KT 33/20 A2974 RMK A01 T03250200  RH  048%=      5-min Rain = 0
KHA3 232134Z 15017KT 33/20 A2974 RMK A01 T03250198  RH  047%=      5-min Rain = 0
KHA3 232135Z 14016KT 32/20 A2974 RMK A01 T03230198  RH  048%=      5-min Rain = 0
KHA3 232136Z 14012KT 32/20 A2974 RMK A01 T03210197  RH  048%=      5-min Rain = 0
KHA3 232137Z 15015G22KT 32/20 A2973 RMK A01 T03210200  RH  049%=      5-min Rain = 0
KHA3 232138Z 15017KT 32/20 A2973 RMK A01 T03220197  RH  048%=      5-min Rain = 0
KHA3 232139Z 16018KT 32/20 A2973 RMK A01 T03200197  RH  048%=      5-min Rain = 0
KHA3 232140Z 16019KT 32/20 A2973 RMK A01 T03180196  RH  048%=      5-min Rain = 0
KHA3 232141Z 15017KT 32/20 A2973 RMK A01 T03160196  RH  049%=      5-min Rain = 0
KHA3 232142Z 14019KT 32/20 A2973 RMK A01 T03150195  RH  049%=      5-min Rain = 0
KHA3 232143Z 16020KT 31/19 A2973 RMK A01 T03140194  RH  049%=      5-min Rain = 0
KHA3 232144Z 16018KT 31/20 A2973 RMK A01 T03140195  RH  049%=      5-min Rain = 0
KHA3 232145Z 15018KT 31/19 A2973 RMK A01 T03130194  RH  049%=      5-min Rain = 0
KHA3 232146Z 16017G22KT 31/19 A2973 RMK A01 T03130194  RH  049%=      5-min Rain = 0
KHA3 232147Z 16013KT 31/20 A2973 RMK A01 T03140195  RH  049%=      5-min Rain = 0
KHA3 232148Z 15015KT 31/20 A2973 RMK A01 T03140195  RH  049%=      5-min Rain = 0
KHA3 232149Z 15014KT 31/19 A2973 RMK A01 T03140193  RH  049%=      5-min Rain = 0
KHA3 232150Z 15017KT 31/19 A2973 RMK A01 T03140193  RH  049%=      5-min Rain = 0
KHA3 232151Z 16016KT 31/19 A2973 RMK A01 T03140192  RH  048%=      5-min Rain = 0
KHA3 232152Z 17017KT 31/19 A2973 RMK A01 T03140193  RH  049%=      5-min Rain = 0
KHA3 232153Z 17019KT 31/19 A2973 RMK A01 T03140193  RH  048%=      5-min Rain = 0
KHA3 232154Z 17018KT 31/19 A2973 RMK A01 T03140193  RH  048%=      5-min Rain = 0
KHA3 232155Z 16013KT 32/20 A2973 RMK A01 T03150195  RH  049%=      5-min Rain = 0
KHA3 232156Z 17015KT 32/20 A2973 RMK A01 T03160195  RH  049%=      5-min Rain = 0
KHA3 232157Z 16017KT 32/19 A2973 RMK A01 T03170193  RH  048%=      5-min Rain = 0
KHA3 232158Z 16016KT 32/19 A2973 RMK A01 T03160193  RH  048%=      5-min Rain = 0
KHA3 232159Z 16016KT 32/19 A2973 RMK A01 T03160194  RH  048%=      5-min Rain = 0
KHA3 232200Z 16020KT 32/19 A2973 RMK A01 T03160193  RH  048%=      5-min Rain = 0
KHA3 232201Z 16015G20KT 32/19 A2973 RMK A01 T03160194  RH  048%=      5-min Rain = 0
KHA3 232202Z 15016G21KT 32/20 A2973 RMK A01 T03150195  RH  049%=      5-min Rain = 0
KHA3 232203Z 17017G23KT 32/20 A2973 RMK A01 T03150195  RH  049%=      5-min Rain = 0
KHA3 232204Z 16018KT 32/19 A2973 RMK A01 T03150194  RH  049%=      5-min Rain = 0
KHA3 232205Z 17017KT 32/19 A2973 RMK A01 T03150193  RH  049%=      5-min Rain = 0
KHA3 232206Z 18018KT 31/19 A2972 RMK A01 T03140194  RH  049%=      5-min Rain = 0
KHA3 232207Z 17018KT 31/19 A2972 RMK A01 T03130194  RH  049%=      5-min Rain = 0
KHA3 232208Z 17016KT 31/19 A2972 RMK A01 T03130193  RH  049%=      5-min Rain = 0
KHA3 232209Z 16017G22KT 31/19 A2972 RMK A01 T03130193  RH  049%=      5-min Rain = 0
KHA3 232210Z 16015KT 31/19 A2972 RMK A01 T03120193  RH  049%=      5-min Rain = 0
KHA3 232211Z 15014KT 31/19 A2972 RMK A01 T03120194  RH  049%=      5-min Rain = 0
KHA3 232212Z 15013KT 31/20 A2972 RMK A01 T03120196  RH  050%=      5-min Rain = 0
KHA3 232213Z 15016G22KT 31/20 A2972 RMK A01 T03130195  RH  050%=      5-min Rain = 0
KHA3 232214Z 17017KT 31/19 A2972 RMK A01 T03130194  RH  049%=      5-min Rain = 0
KHA3 232215Z 16017KT 31/19 A2972 RMK A01 T03120193  RH  049%=      5-min Rain = 0
KHA3 232216Z 16017KT 31/19 A2972 RMK A01 T03120192  RH  049%=      5-min Rain = 0
KHA3 232217Z 18014KT 31/19 A2972 RMK A01 T03120192  RH  049%=      5-min Rain = 0
KHA3 232218Z 17016KT 31/19 A2972 RMK A01 T03120191  RH  049%=      5-min Rain = 0
KHA3 232219Z 17017KT 31/19 A2972 RMK A01 T03120191  RH  048%=      5-min Rain = 0
KHA3 232220Z 17018G23KT 31/19 A2971 RMK A01 T03120191  RH  049%=      5-min Rain = 0
KHA3 232221Z 17018G23KT 31/19 A2971 RMK A01 T03120191  RH  049%=      5-min Rain = 0
KHA3 232222Z 17016KT 31/19 A2971 RMK A01 T03120191  RH  049%=      5-min Rain = 0
KHA3 232223Z 16018G23KT 31/19 A2971 RMK A01 T03120191  RH  049%=      5-min Rain = 0
KHA3 232224Z 17017G22KT 31/19 A2971 RMK A01 T03110192  RH  049%=      5-min Rain = 0
KHA3 232225Z 16018KT 31/19 A297 RMK A01 T03110192  RH  049%=      5-min Rain = 0
KHA3 232226Z 17017KT 31/19 A297 RMK A01 T03100192  RH  049%=      5-min Rain = 0
KHA3 232227Z 17016KT 31/19 A297 RMK A01 T03100192  RH  049%=      5-min Rain = 0
KHA3 232228Z 16018KT 31/19 A297 RMK A01 T03090191  RH  049%=      5-min Rain = 0
KHA3 232229Z 16015KT 31/19 A297 RMK A01 T03090191  RH  049%=      5-min Rain = 0
KHA3 232230Z 17014G19KT 31/19 A297 RMK A01 T03090191  RH  049%=      5-min Rain = 0
KHA3 232231Z 17014KT 31/19 A297 RMK A01 T03090192  RH  050%=      5-min Rain = 0
KHA3 232232Z 16016KT 31/19 A297 RMK A01 T03090191  RH  050%=      5-min Rain = 0
KHA3 232233Z 16016G21KT 31/19 A297 RMK A01 T03080192  RH  050%=      5-min Rain = 0
KHA3 232234Z 16017KT 31/19 A297 RMK A01 T03080192  RH  050%=      5-min Rain = 0
KHA3 232235Z 16018KT 31/19 A2971 RMK A01 T03090192  RH  050%=      5-min Rain = 0
KHA3 232236Z 17017G24KT 31/19 A2971 RMK A01 T03080191  RH  049%=      5-min Rain = 0
KHA3 232237Z 17019KT 31/19 A2971 RMK A01 T03080189  RH  049%=      5-min Rain = 0
KHA3 232238Z 17016KT 31/19 A2971 RMK A01 T03080190  RH  049%=      5-min Rain = 0
KHA3 232239Z 17017KT 31/19 A2971 RMK A01 T03080190  RH  050%=      5-min Rain = 0
KHA3 232240Z 17018KT 31/19 A2971 RMK A01 T03070190  RH  049%=      5-min Rain = 0
KHA3 232241Z 16016KT 31/19 A2971 RMK A01 T03070190  RH  049%=      5-min Rain = 0
KHA3 232242Z 17014KT 31/19 A2971 RMK A01 T03070190  RH  050%=      5-min Rain = 0
KHA3 232243Z 17017KT 31/19 A2972 RMK A01 T03070190  RH  050%=      5-min Rain = 0
KHA3 232244Z 17019KT 31/19 A2971 RMK A01 T03070188  RH  049%=      5-min Rain = 0
KHA3 232245Z 17017KT 31/19 A2971 RMK A01 T03070188  RH  049%=      5-min Rain = 0
KHA3 232246Z 17017KT 31/19 A2971 RMK A01 T03070188  RH  049%=      5-min Rain = 0
KHA3 232247Z 17013KT 31/19 A2971 RMK A01 T03070189  RH  049%=      5-min Rain = 0
KHA3 232248Z 16013KT 31/19 A2971 RMK A01 T03060189  RH  050%=      5-min Rain = 0
KHA3 232249Z 16013KT 31/19 A2971 RMK A01 T03050189  RH  050%=      5-min Rain = 0
KHA3 232250Z 16014KT 31/19 A2971 RMK A01 T03050189  RH  050%=      5-min Rain = 0
KHA3 232251Z 17014KT 30/19 A2971 RMK A01 T03040189  RH  050%=      5-min Rain = 0
KHA3 232252Z 17018G23KT 31/19 A2971 RMK A01 T03050190  RH  050%=      5-min Rain = 0
KHA3 232253Z 16020KT 30/19 A2971 RMK A01 T03040189  RH  050%=      5-min Rain = 0
KHA3 232254Z 17017KT 30/19 A2971 RMK A01 T03040189  RH  050%=      5-min Rain = 0
KHA3 232255Z 17016KT 30/19 A2972 RMK A01 T03040190  RH  050%=      5-min Rain = 0
KHA3 232256Z 17015KT 30/19 A2972 RMK A01 T03040190  RH  050%=      5-min Rain = 0
KHA3 232257Z 18013KT 30/19 A2972 RMK A01 T03040191  RH  051%=      5-min Rain = 0
KHA3 232258Z 17014KT 30/19 A2972 RMK A01 T03040191  RH  051%=      5-min Rain = 0
KHA3 232259Z 17016KT 30/19 A2972 RMK A01 T03040191  RH  051%=      5-min Rain = 0
KHA3 232300Z 18017KT 30/19 A2971 RMK A01 T03040190  RH  051%=      5-min Rain = 0
KHA3 232301Z 18015KT 30/19 A2971 RMK A01 T03040190  RH  050%=      5-min Rain = 0
KHA3 232302Z 18017KT 30/19 A2971 RMK A01 T03040189  RH  050%=      5-min Rain = 0
KHA3 232303Z 17015KT 30/19 A2972 RMK A01 T03040190  RH  050%=      5-min Rain = 0
KHA3 232304Z 18016KT 30/19 A2972 RMK A01 T03040190  RH  051%=      5-min Rain = 0
KHA3 232305Z 18017KT 30/19 A2972 RMK A01 T03040190  RH  051%=      5-min Rain = 0
KHA3 232306Z 17014KT 30/19 A2972 RMK A01 T03040191  RH  051%=      5-min Rain = 0
KHA3 232307Z 17016KT 30/19 A2972 RMK A01 T03040191  RH  051%=      5-min Rain = 0
KHA3 232308Z 17014KT 30/19 A2972 RMK A01 T03030191  RH  051%=      5-min Rain = 0
KHA3 232309Z 17012KT 30/19 A2972 RMK A01 T03030191  RH  051%=      5-min Rain = 0
KHA3 232310Z 17013KT 30/19 A2972 RMK A01 T03020192  RH  052%=      5-min Rain = 0
KHA3 232311Z 17012KT 30/19 A2972 RMK A01 T03020192  RH  052%=      5-min Rain = 0
KHA3 232312Z 17015KT 30/19 A2972 RMK A01 T03010192  RH  052%=      5-min Rain = 0
KHA3 232313Z 16013KT 30/19 A2972 RMK A01 T03010192  RH  052%=      5-min Rain = 0
KHA3 232314Z 17013KT 30/19 A2972 RMK A01 T03010193  RH  052%=      5-min Rain = 0
KHA3 232315Z 17015KT 30/19 A2972 RMK A01 T03010193  RH  052%=      5-min Rain = 0
KHA3 232316Z 17014KT 30/19 A2972 RMK A01 T03010193  RH  052%=      5-min Rain = 0
KHA3 232317Z 17012KT 30/19 A2972 RMK A01 T03010193  RH  053%=      5-min Rain = 0
KHA3 232318Z 17014KT 30/19 A2972 RMK A01 T03010194  RH  053%=      5-min Rain = 0
KHA3 232319Z 17013KT 30/19 A2972 RMK A01 T03010193  RH  053%=      5-min Rain = 0
KHA3 232320Z 17015KT 30/19 A2972 RMK A01 T03010193  RH  053%=      5-min Rain = 0
KHA3 232321Z 17013KT 30/19 A2972 RMK A01 T03010193  RH  053%=      5-min Rain = 0
KHA3 232322Z 17013KT 30/19 A2972 RMK A01 T03010194  RH  053%=      5-min Rain = 0
KHA3 232323Z 17012KT 30/19 A2972 RMK A01 T03010194  RH  053%=      5-min Rain = 0
KHA3 232324Z 17012KT 30/19 A2972 RMK A01 T03010194  RH  053%=      5-min Rain = 0
KHA3 232325Z 17013G19KT 30/19 A2972 RMK A01 T03010194  RH  053%=      5-min Rain = 0
KHA3 232326Z 17013KT 30/19 A2972 RMK A01 T03010194  RH  053%=      5-min Rain = 0
KHA3 232327Z 17012KT 30/19 A2971 RMK A01 T03010193  RH  052%=      5-min Rain = 0
KHA3 232328Z 15012KT 30/19 A2971 RMK A01 T03010193  RH  052%=      5-min Rain = 0
KHA3 232329Z 16010KT 30/19 A2971 RMK A01 T03010193  RH  052%=      5-min Rain = 0
KHA3 232330Z 16008KT 30/19 A2971 RMK A01 T03010194  RH  053%=      5-min Rain = 0
KHA3 232331Z 16010KT 30/19 A2971 RMK A01 T03010194  RH  053%=      5-min Rain = 0
KHA3 232332Z 16010KT 30/19 A2971 RMK A01 T03000194  RH  053%=      5-min Rain = 0
KHA3 232333Z 16013KT 30/19 A2971 RMK A01 T02990193  RH  053%=      5-min Rain = 0
KHA3 232334Z 15012KT 30/19 A2971 RMK A01 T03000193  RH  053%=      5-min Rain = 0
KHA3 232335Z 17009KT 30/19 A2971 RMK A01 T03000193  RH  053%=      5-min Rain = 0
KHA3 232336Z 17013KT 30/19 A2971 RMK A01 T03000194  RH  053%=      5-min Rain = 0
KHA3 232337Z 17013KT 30/19 A2971 RMK A01 T02990193  RH  053%=      5-min Rain = 0
KHA3 232338Z 17014KT 30/19 A2971 RMK A01 T02990193  RH  053%=      5-min Rain = 0
KHA3 232339Z 17013KT 30/19 A2971 RMK A01 T02990194  RH  053%=      5-min Rain = 0
KHA3 232340Z 18014KT 30/19 A2971 RMK A01 T02990193  RH  053%=      5-min Rain = 0
KHA3 232341Z 18014G19KT 30/19 A2971 RMK A01 T02990193  RH  053%=      5-min Rain = 0
KHA3 232342Z 18016KT 30/19 A2971 RMK A01 T02990193  RH  053%=      5-min Rain = 0
KHA3 232343Z 18015G21KT 30/19 A2971 RMK A01 T02990193  RH  053%=      5-min Rain = 0
KHA3 232344Z 18016G21KT 30/19 A2971 RMK A01 T02990192  RH  053%=      5-min Rain = 0
KHA3 232345Z 18015G20KT 30/19 A2971 RMK A01 T03000193  RH  053%=      5-min Rain = 0
KHA3 232346Z 18017KT 30/19 A2971 RMK A01 T02990192  RH  053%=      5-min Rain = 0
KHA3 232347Z 18021KT 30/19 A2971 RMK A01 T02990193  RH  053%=      5-min Rain = 0
KHA3 232348Z 18021KT 30/19 A2971 RMK A01 T03000192  RH  053%=      5-min Rain = 0
KHA3 232349Z 18016G21KT 30/19 A2971 RMK A01 T03000192  RH  053%=      5-min Rain = 0
KHA3 232350Z 19018KT 30/19 A2971 RMK A01 T03000193  RH  053%=      5-min Rain = 0
KHA3 232351Z 19019KT 30/19 A2971 RMK A01 T03000193  RH  053%=      5-min Rain = 0
KHA3 232352Z 18021KT 30/19 A2971 RMK A01 T02990193  RH  053%=      5-min Rain = 0
KHA3 232353Z 19021KT 30/19 A2971 RMK A01 T02990193  RH  053%=      5-min Rain = 0
KHA3 232354Z 19020KT 30/19 A2971 RMK A01 T02990193  RH  053%=      5-min Rain = 0
KHA3 232355Z 19020KT 30/19 A2971 RMK A01 T02990193  RH  053%=      5-min Rain = 0
KHA3 232356Z 19020KT 30/19 A2971 RMK A01 T02990193  RH  053%=      5-min Rain = 0
KHA3 232357Z 19019G25KT 30/19 A2971 RMK A01 T02990193  RH  053%=      5-min Rain = 0
KHA3 232358Z 19020KT 30/19 A297 RMK A01 T02990193  RH  053%=      5-min Rain = 0
KHA3 232359Z 19019KT 30/19 A297 RMK A01 T02990193  RH  053%=      5-min Rain = 0
KHA3 240000Z 20019KT 30/19 A297 RMK A01 T02990193  RH  053%=      5-min Rain = 0
KHA3 240001Z 20020G25KT 30/19 A297 RMK A01 T02990193  RH  053%=      5-min Rain = 0
KHA3 240002Z 20019KT 30/19 A297 RMK A01 T02980193  RH  053%=      5-min Rain = 0
KHA3 240003Z 19019KT 30/19 A297 RMK A01 T02980192  RH  053%=      5-min Rain = 0
KHA3 240004Z 19017G24KT 30/19 A297 RMK A01 T02980193  RH  053%=      5-min Rain = 0
KHA3 240005Z 20019G24KT 30/19 A297 RMK A01 T02970192  RH  053%=      5-min Rain = 0
KHA3 240006Z 20016KT 30/19 A297 RMK A01 T02980192  RH  053%=      5-min Rain = 0
KHA3 240007Z 20017KT 30/19 A297 RMK A01 T02970191  RH  053%=      5-min Rain = 0
KHA3 240008Z 21018G23KT 30/19 A297 RMK A01 T02980192  RH  053%=      5-min Rain = 0
KHA3 240009Z 21018KT 30/19 A297 RMK A01 T02970192  RH  053%=      5-min Rain = 0
KHA3 240010Z 20019KT 30/19 A297 RMK A01 T02970192  RH  053%=      5-min Rain = 0
KHA3 240011Z 20019KT 30/19 A297 RMK A01 T02970192  RH  053%=      5-min Rain = 0
KHA3 240012Z 20019KT 30/19 A297 RMK A01 T02970192  RH  053%=      5-min Rain = 0
KHA3 240013Z 20017KT 30/19 A297 RMK A01 T02980193  RH  053%=      5-min Rain = 0
KHA3 240014Z 20017KT 30/19 A297 RMK A01 T02960193  RH  054%=      5-min Rain = 0
KHA3 240015Z 20020KT 30/19 A297 RMK A01 T02950192  RH  054%=      5-min Rain = 0
KHA3 240016Z 20019KT 30/19 A2971 RMK A01 T02950190  RH  053%=      5-min Rain = 0
KHA3 240017Z 20019KT 30/19 A2971 RMK A01 T02960191  RH  053%=      5-min Rain = 0
KHA3 240018Z 20017KT 30/19 A2971 RMK A01 T02970191  RH  053%=      5-min Rain = 0
KHA3 240019Z 20018KT 30/19 A2972 RMK A01 T02960192  RH  054%=      5-min Rain = 0
KHA3 240020Z 20017KT 30/19 A2972 RMK A01 T02950191  RH  053%=      5-min Rain = 0
KHA3 240021Z 20015KT 30/19 A2972 RMK A01 T02950191  RH  053%=      5-min Rain = 0
KHA3 240022Z 20015KT 30/19 A2972 RMK A01 T02950191  RH  053%=      5-min Rain = 0
KHA3 240023Z 20014KT 30/19 A2972 RMK A01 T02950192  RH  054%=      5-min Rain = 0
KHA3 240024Z 20014KT 29/19 A2972 RMK A01 T02940190  RH  054%=      5-min Rain = 0
KHA3 240025Z 20019G24KT 29/19 A2972 RMK A01 T02940186  RH  052%=      5-min Rain = 0
KHA3 240026Z 19019G25KT 30/18 A2972 RMK A01 T02950180  RH  050%=      5-min Rain = 0
KHA3 240027Z 20021G26KT 30/17 A2972 RMK A01 T02980171  RH  046%=      5-min Rain = 0
KHA3 240028Z 21022KT 30/17 A2972 RMK A01 T03000172  RH  046%=      5-min Rain = 0
KHA3 240029Z 20019G25KT 30/17 A2972 RMK A01 T03010169  RH  045%=      5-min Rain = 0
KHA3 240030Z 20019KT 30/16 A2972 RMK A01 T03020160  RH  042%=      5-min Rain = 0
KHA3 240031Z 20017KT 30/17 A2973 RMK A01 T03020168  RH  044%=      5-min Rain = 0
KHA3 240032Z 19017KT 30/17 A2973 RMK A01 T03020170  RH  045%=      5-min Rain = 0
KHA3 240033Z 20017KT 30/17 A2973 RMK A01 T03010166  RH  044%=      5-min Rain = 0
KHA3 240034Z 20017KT 30/17 A2973 RMK A01 T03010165  RH  044%=      5-min Rain = 0
KHA3 240035Z 20018KT 30/16 A2973 RMK A01 T03010162  RH  043%=      5-min Rain = 0
KHA3 240036Z 20015KT 30/16 A2973 RMK A01 T03010163  RH  043%=      5-min Rain = 0
KHA3 240037Z 21015G20KT 30/16 A2973 RMK A01 T02990163  RH  044%=      5-min Rain = 0
KHA3 240038Z 20014KT 30/17 A2973 RMK A01 T02970165  RH  045%=      5-min Rain = 0
KHA3 240039Z 20016KT 30/16 A2973 RMK A01 T02950159  RH  044%=      5-min Rain = 0
KHA3 240040Z 20018KT 30/15 A2973 RMK A01 T02950148  RH  041%=      5-min Rain = 0
KHA3 240041Z 20014KT 30/15 A2974 RMK A01 T02960152  RH  042%=      5-min Rain = 0
KHA3 240042Z 20015KT 30/15 A2974 RMK A01 T02960146  RH  040%=      5-min Rain = 0
KHA3 240043Z 20012KT 30/15 A2974 RMK A01 T02960146  RH  040%=      5-min Rain = 0
KHA3 240044Z 21012KT 30/14 A2975 RMK A01 T02950136  RH  038%=      5-min Rain = 0
KHA3 240045Z 21012KT 30/13 A2975 RMK A01 T02960130  RH  036%=      5-min Rain = 0
KHA3 240046Z 22011KT 30/13 A2975 RMK A01 T02970130  RH  036%=      5-min Rain = 0
KHA3 240047Z 23010KT 30/13 A2975 RMK A01 T02970129  RH  036%=      5-min Rain = 0
KHA3 240048Z 23012KT 30/13 A2975 RMK A01 T02970130  RH  036%=      5-min Rain = 0
KHA3 240049Z 24018KT 30/10 A2975 RMK A01 T02970100  RH  029%=      5-min Rain = 0
KHA3 240050Z 24017KT 30/09 A2976 RMK A01 T02990087  RH  027%=      5-min Rain = 0
KHA3 240051Z 24017G22KT 30/09 A2976 RMK A01 T03000089  RH  027%=      5-min Rain = 0
KHA3 240052Z 24017KT 30/09 A2976 RMK A01 T03000089  RH  027%=      5-min Rain = 0
KHA3 240053Z 25014KT 30/09 A2976 RMK A01 T03000088  RH  027%=      5-min Rain = 0
KHA3 240054Z 26013G19KT 30/09 A2975 RMK A01 T02990090  RH  027%=      5-min Rain = 0
KHA3 240055Z 26018KT 30/09 A2975 RMK A01 T02980088  RH  027%=      5-min Rain = 0
KHA3 240056Z 26018KT 30/08 A2975 RMK A01 T02980083  RH  026%=      5-min Rain = 0
KHA3 240057Z 26016KT 30/08 A2975 RMK A01 T02990083  RH  026%=      5-min Rain = 0
KHA3 240058Z 26016KT 30/09 A2975 RMK A01 T02990085  RH  026%=      5-min Rain = 0
KHA3 240059Z 25016KT 30/09 A2976 RMK A01 T02980090  RH  027%=      5-min Rain = 0
KHA3 240100Z 26015G20KT 30/09 A2976 RMK A01 T02960092  RH  028%=      5-min Rain = 0
KHA3 240101Z 26019G24KT 29/09 A2976 RMK A01 T02940090  RH  028%=      5-min Rain = 0
KHA3 240102Z 26019KT 29/09 A2976 RMK A01 T02930090  RH  028%=      5-min Rain = 0
KHA3 240103Z 26020G26KT 29/10 A2976 RMK A01 T02930095  RH  029%=      5-min Rain = 0
KHA3 240104Z 27020KT 29/10 A2976 RMK A01 T02900099  RH  030%=      5-min Rain = 0
KHA3 240105Z 27020G26KT 29/10 A2976 RMK A01 T02860102  RH  032%=      5-min Rain = 0
KHA3 240106Z 28021G26KT 28/10 A2976 RMK A01 T02820102  RH  032%=      5-min Rain = 0
KHA3 240107Z 28019KT 28/10 A2976 RMK A01 T02800104  RH  033%=      5-min Rain = 0
KHA3 240108Z 28021KT 28/10 A2975 RMK A01 T02780103  RH  033%=      5-min Rain = 0
KHA3 240109Z 28020KT 28/11 A2975 RMK A01 T02770105  RH  034%=      5-min Rain = 0
KHA3 240110Z 28022KT 28/11 A2975 RMK A01 T02760105  RH  034%=      5-min Rain = 0
KHA3 240111Z 29023G33KT 28/11 A2975 RMK A01 T02750106  RH  035%=      5-min Rain = 0
KHA3 240112Z 29028KT 27/10 A2975 RMK A01 T02740103  RH  034%=      5-min Rain = 0
KHA3 240113Z 29021G29KT 28/10 A2976 RMK A01 T02750101  RH  034%=      5-min Rain = 0
KHA3 240114Z 29019KT 28/11 A2976 RMK A01 T02750105  RH  035%=      5-min Rain = 0
KHA3 240115Z 28018G23KT 27/11 A2976 RMK A01 T02740108  RH  035%=      5-min Rain = 0
KHA3 240116Z 29015G20KT 27/11 A2977 RMK A01 T02720110  RH  036%=      5-min Rain = 0
KHA3 240117Z 28020KT 27/11 A2977 RMK A01 T02700111  RH  037%=      5-min Rain = 0
KHA3 240118Z 29023KT 27/11 A2977 RMK A01 T02690111  RH  037%=      5-min Rain = 0
KHA3 240119Z 28022G27KT 27/11 A2978 RMK A01 T02680112  RH  038%=      5-min Rain = 0
KHA3 240120Z 28023G29KT 27/11 A2978 RMK A01 T02660112  RH  038%=      5-min Rain = 0
KHA3 240121Z 27020G26KT 27/11 A2979 RMK A01 T02650114  RH  039%=      5-min Rain = 0
KHA3 240122Z 25016G21KT 26/12 A2979 RMK A01 T02640115  RH  039%=      5-min Rain = 0
KHA3 240123Z 23016G22KT 26/11 A298 RMK A01 T02640112  RH  039%=      5-min Rain = 0
KHA3 240124Z 23016KT 27/11 A298 RMK A01 T02650113  RH  039%=      5-min Rain = 0
KHA3 240125Z 23016KT 27/11 A298 RMK A01 T02650114  RH  039%=      5-min Rain = 0
KHA3 240126Z 23019KT 26/11 A298 RMK A01 T02640111  RH  038%=      5-min Rain = 0
KHA3 240127Z 23016G21KT 27/11 A298 RMK A01 T02650109  RH  038%=      5-min Rain = 0
KHA3 240128Z 23020G26KT 27/11 A2981 RMK A01 T02660111  RH  038%=      5-min Rain = 0
KHA3 240129Z 22026G31KT 27/11 A2981 RMK A01 T02660111  RH  038%=      5-min Rain = 0
KHA3 240130Z 23027G32KT 27/11 A2982 RMK A01 T02650113  RH  039%=      5-min Rain = 0
KHA3 240131Z 23024G30KT 26/12 A2982 RMK A01 T02610118  RH  041%=      5-min Rain = 0
KHA3 240132Z 22022G27KT 26/13 A2983 RMK A01 T02560127  RH  045%=      5-min Rain = 0
KHA3 240133Z 21023G28KT 25/14 A2984 RMK A01 T02470137  RH  050%=      5-min Rain = 0
KHA3 240134Z 22021G28KT 24/15 A2985 RMK A01 T02350146  RH  057%=      5-min Rain = 0
KHA3 240135Z 22024G30KT 23/15 A2986 RMK A01 T02250150  RH  062%=      5-min Rain = 0
KHA3 240136Z 21024G30KT 22/15 A2986 RMK A01 T02190154  RH  066%=      5-min Rain = 0
KHA3 240137Z 20029G34KT 21/16 A2986 RMK A01 T02130156  RH  070%=      5-min Rain = 0
KHA3 240138Z 20026G32KT 21/16 A2987 RMK A01 T02070159  RH  074%=      5-min Rain = 0.01
KHA3 240139Z 20026G32KT 20/16 A2988 RMK A01 T02030161  RH  077%=      5-min Rain = 0
KHA3 240140Z 20027KT 20/16 A2988 RMK A01 T02010160  RH  077%=      5-min Rain = 0
KHA3 240141Z 20025G31KT 20/16 A2989 RMK A01 T02010159  RH  077%=      5-min Rain = 0
KHA3 240142Z 21024KT 20/16 A2989 RMK A01 T02010157  RH  076%=      5-min Rain = 0.01
KHA3 240143Z 21019G24KT 20/16 A2989 RMK A01 T02010161  RH  078%=      5-min Rain = 0
KHA3 240144Z 22020G25KT 20/16 A2989 RMK A01 T01990159  RH  078%=      5-min Rain = 0
KHA3 240145Z 22022G31KT 20/16 A2989 RMK A01 T02000158  RH  076%=      5-min Rain = 0
KHA3 240146Z 22024G29KT 20/16 A2989 RMK A01 T02020156  RH  075%=      5-min Rain = 0
KHA3 240147Z 22023G28KT 20/16 A2989 RMK A01 T02040156  RH  074%=      5-min Rain = 0
KHA3 240148Z 22022G30KT 20/16 A2988 RMK A01 T02040158  RH  075%=      5-min Rain = 0.01
KHA3 240149Z 23026G31KT 20/16 A2988 RMK A01 T02020159  RH  076%=      5-min Rain = 0
KHA3 240150Z 23027G32KT 20/16 A2989 RMK A01 T02020159  RH  076%=      5-min Rain = 0
KHA3 240151Z 23025KT 20/16 A2989 RMK A01 T02010160  RH  077%=      5-min Rain = 0
KHA3 240152Z 23023G29KT 20/16 A299 RMK A01 T02000161  RH  078%=      5-min Rain = 0
KHA3 240153Z 23023G29KT 20/16 A299 RMK A01 T01990160  RH  078%=      5-min Rain = 0
KHA3 240154Z 23022G28KT 20/16 A299 RMK A01 T01990160  RH  078%=      5-min Rain = 0
KHA3 240155Z 23017G22KT 20/16 A299 RMK A01 T01990162  RH  080%=      5-min Rain = 0
KHA3 240156Z 24021KT 20/16 A299 RMK A01 T01980162  RH  080%=      5-min Rain = 0
KHA3 240157Z 24023KT 20/16 A299 RMK A01 T01970159  RH  079%=      5-min Rain = 0
KHA3 240158Z 24023KT 20/16 A299 RMK A01 T01980158  RH  078%=      5-min Rain = 0
KHA3 240159Z 24025G30KT 20/16 A2989 RMK A01 T01980158  RH  078%=      5-min Rain = 0
KHA3 240200Z 24024KT 20/16 A2989 RMK A01 T01980159  RH  078%=      5-min Rain = 0
KHA3 240201Z 24027G32KT 20/16 A2988 RMK A01 T01970159  RH  079%=      5-min Rain = 0
KHA3 240202Z 24027G34KT 20/16 A2988 RMK A01 T01960159  RH  079%=      5-min Rain = 0
KHA3 240203Z 25029G35KT 20/16 A2988 RMK A01 T01950159  RH  080%=      5-min Rain = 0
KHA3 240204Z 24027G33KT 19/16 A2987 RMK A01 T01940159  RH  080%=      5-min Rain = 0.01
KHA3 240205Z 25024G30KT 19/16 A2987 RMK A01 T01930160  RH  081%=      5-min Rain = 0
KHA3 240206Z 25025G30KT 19/16 A2986 RMK A01 T01930161  RH  082%=      5-min Rain = 0
KHA3 240207Z 25025G30KT 19/16 A2986 RMK A01 T01920161  RH  082%=      5-min Rain = 0
KHA3 240208Z 25024G29KT 19/16 A2986 RMK A01 T01920161  RH  082%=      5-min Rain = 0
KHA3 240209Z 25027G32KT 19/16 A2986 RMK A01 T01910159  RH  082%=      5-min Rain = 0
KHA3 240210Z 25025G30KT 19/16 A2987 RMK A01 T01920157  RH  080%=      5-min Rain = 0
KHA3 240211Z 25024KT 19/16 A2987 RMK A01 T01920159  RH  081%=      5-min Rain = 0.01
KHA3 240212Z 25020G25KT 19/16 A2988 RMK A01 T01930160  RH  081%=      5-min Rain = 0
KHA3 240213Z 25020G26KT 19/16 A2988 RMK A01 T01920159  RH  081%=      5-min Rain = 0
KHA3 240214Z 25023KT 19/16 A2988 RMK A01 T01920156  RH  079%=      5-min Rain = 0
KHA3 240215Z 24022G27KT 19/15 A2989 RMK A01 T01940154  RH  078%=      5-min Rain = 0
KHA3 240216Z 24022G27KT 20/15 A2989 RMK A01 T01960153  RH  076%=      5-min Rain = 0
KHA3 240217Z 24020KT 20/15 A299 RMK A01 T01970152  RH  075%=      5-min Rain = 0.01
KHA3 240218Z 24020KT 20/15 A299 RMK A01 T01970154  RH  076%=      5-min Rain = 0
KHA3 240219Z 24020KT 20/15 A299 RMK A01 T01960154  RH  076%=      5-min Rain = 0
KHA3 240220Z 24019KT 20/15 A299 RMK A01 T01960154  RH  077%=      5-min Rain = 0
KHA3 240221Z 23019G24KT 20/16 A299 RMK A01 T01950155  RH  078%=      5-min Rain = 0
KHA3 240222Z 23018G24KT 19/16 A299 RMK A01 T01940156  RH  078%=      5-min Rain = 0
KHA3 240223Z 23019KT 19/16 A299 RMK A01 T01940156  RH  079%=      5-min Rain = 0
KHA3 240224Z 23018KT 19/16 A299 RMK A01 T01930157  RH  079%=      5-min Rain = 0.01
KHA3 240225Z 23016KT 19/16 A299 RMK A01 T01920158  RH  080%=      5-min Rain = 0
KHA3 240226Z 23017KT 19/16 A299 RMK A01 T01920159  RH  081%=      5-min Rain = 0
KHA3 240227Z 24017KT 19/16 A2991 RMK A01 T01910158  RH  081%=      5-min Rain = 0
KHA3 240228Z 24016KT 19/16 A2991 RMK A01 T01910158  RH  081%=      5-min Rain = 0.01
KHA3 240229Z 24014KT 19/16 A2991 RMK A01 T01910159  RH  082%=      5-min Rain = 0
KHA3 240230Z 24014KT 19/16 A2991 RMK A01 T01910158  RH  081%=      5-min Rain = 0
KHA3 240231Z 24017KT 19/16 A2991 RMK A01 T01910157  RH  081%=      5-min Rain = 0
KHA3 240232Z 24015KT 19/16 A2991 RMK A01 T01910156  RH  080%=      5-min Rain = 0
KHA3 240233Z 24015KT 19/16 A2991 RMK A01 T01920157  RH  080%=      5-min Rain = 0
KHA3 240234Z 25016KT 19/16 A2991 RMK A01 T01920156  RH  080%=      5-min Rain = 0
KHA3 240235Z 24016KT 19/16 A2991 RMK A01 T01920156  RH  080%=      5-min Rain = 0
KHA3 240236Z 24015KT 19/16 A2992 RMK A01 T01920157  RH  080%=      5-min Rain = 0
KHA3 240237Z 24015KT 19/16 A2992 RMK A01 T01910158  RH  081%=      5-min Rain = 0.01
KHA3 240238Z 23014KT 19/16 A2992 RMK A01 T01910157  RH  081%=      5-min Rain = 0
KHA3 240239Z 23013KT 19/16 A2992 RMK A01 T01910159  RH  082%=      5-min Rain = 0
KHA3 240240Z 22013KT 19/16 A2992 RMK A01 T01900158  RH  082%=      5-min Rain = 0
KHA3 240241Z 22012KT 19/16 A2992 RMK A01 T01900158  RH  082%=      5-min Rain = 0
KHA3 240242Z 22012KT 19/16 A2992 RMK A01 T01890160  RH  083%=      5-min Rain = 0.01
KHA3 240243Z 21012KT 19/16 A2992 RMK A01 T01880162  RH  085%=      5-min Rain = 0
KHA3 240244Z 21014KT 19/16 A2992 RMK A01 T01860160  RH  085%=      5-min Rain = 0
KHA3 240245Z 20013KT 19/16 A2991 RMK A01 T01860159  RH  085%=      5-min Rain = 0.01
KHA3 240246Z 20013KT 19/16 A2991 RMK A01 T01850160  RH  085%=      5-min Rain = 0
KHA3 240247Z 20013KT 18/16 A2991 RMK A01 T01840160  RH  086%=      5-min Rain = 0
KHA3 240248Z 20012KT 18/16 A2991 RMK A01 T01840160  RH  086%=      5-min Rain = 0
KHA3 240249Z 20012KT 18/16 A2991 RMK A01 T01830159  RH  086%=      5-min Rain = 0.01
KHA3 240250Z 21012KT 18/16 A2991 RMK A01 T01830159  RH  086%=      5-min Rain = 0
KHA3 240251Z 21013KT 18/16 A2991 RMK A01 T01830158  RH  085%=      5-min Rain = 0
KHA3 240252Z 21012KT 18/16 A2991 RMK A01 T01830159  RH  086%=      5-min Rain = 0
KHA3 240253Z 21013KT 18/16 A2992 RMK A01 T01820160  RH  087%=      5-min Rain = 0.01
KHA3 240254Z 21013KT 18/16 A2992 RMK A01 T01820159  RH  087%=      5-min Rain = 0
KHA3 240255Z 21013KT 18/16 A2992 RMK A01 T01820160  RH  087%=      5-min Rain = 0
KHA3 240256Z 21014KT 18/16 A2992 RMK A01 T01810160  RH  087%=      5-min Rain = 0.01
KHA3 240257Z 22014KT 18/16 A2992 RMK A01 T01810160  RH  087%=      5-min Rain = 0
KHA3 240258Z 21016KT 18/16 A2993 RMK A01 T01810160  RH  088%=      5-min Rain = 0.01
KHA3 240259Z 21015KT 18/16 A2993 RMK A01 T01810161  RH  088%=      5-min Rain = 0
KHA3 240300Z 21017KT 18/16 A2993 RMK A01 T01810161  RH  088%=      5-min Rain = 0
KHA3 240301Z 21015KT 18/16 A2993 RMK A01 T01810160  RH  087%=      5-min Rain = 0.01
KHA3 240302Z 21016KT 18/16 A2993 RMK A01 T01820160  RH  087%=      5-min Rain = 0
KHA3 240303Z 21015KT 18/16 A2993 RMK A01 T01810160  RH  087%=      5-min Rain = 0
KHA3 240304Z 22016KT 18/16 A2993 RMK A01 T01810158  RH  086%=      5-min Rain = 0.01
KHA3 240305Z 22014KT 18/16 A2993 RMK A01 T01820158  RH  086%=      5-min Rain = 0
KHA3 240306Z 22015KT 18/16 A2993 RMK A01 T01830158  RH  085%=      5-min Rain = 0
KHA3 240307Z 22017KT 18/16 A2993 RMK A01 T01830157  RH  085%=      5-min Rain = 0
KHA3 240308Z 22019KT 18/16 A2993 RMK A01 T01830158  RH  085%=      5-min Rain = 0.01
KHA3 240309Z 22018KT 18/16 A2993 RMK A01 T01830159  RH  086%=      5-min Rain = 0
KHA3 240310Z 22017KT 18/16 A2993 RMK A01 T01820159  RH  086%=      5-min Rain = 0
KHA3 240311Z 22016KT 18/16 A2993 RMK A01 T01820159  RH  086%=      5-min Rain = 0
KHA3 240312Z 22015KT 18/16 A2993 RMK A01 T01820160  RH  087%=      5-min Rain = 0.01
KHA3 240313Z 22015KT 18/16 A2993 RMK A01 T01810160  RH  088%=      5-min Rain = 0
KHA3 240314Z 22015KT 18/16 A2993 RMK A01 T01800159  RH  087%=      5-min Rain = 0.01
KHA3 240315Z 22014KT 18/16 A2993 RMK A01 T01800159  RH  088%=      5-min Rain = 0
KHA3 240316Z 21014KT 18/16 A2993 RMK A01 T01800159  RH  088%=      5-min Rain = 0
KHA3 240317Z 21014KT 18/16 A2993 RMK A01 T01800160  RH  088%=      5-min Rain = 0.01
KHA3 240318Z 21012KT 18/16 A2993 RMK A01 T01790160  RH  088%=      5-min Rain = 0
KHA3 240319Z 21012KT 18/16 A2993 RMK A01 T01780160  RH  089%=      5-min Rain = 0.01
KHA3 240320Z 20012KT 18/16 A2993 RMK A01 T01780161  RH  090%=      5-min Rain = 0
KHA3 240321Z 19012KT 18/16 A2993 RMK A01 T01770160  RH  090%=      5-min Rain = 0
KHA3 240322Z 19011KT 18/16 A2993 RMK A01 T01770159  RH  089%=      5-min Rain = 0.01
KHA3 240323Z 19011KT 18/16 A2993 RMK A01 T01770159  RH  089%=      5-min Rain = 0
KHA3 240324Z 19011KT 18/16 A2993 RMK A01 T01770159  RH  089%=      5-min Rain = 0
KHA3 240325Z 19010KT 18/16 A2993 RMK A01 T01770158  RH  089%=      5-min Rain = 0.01
KHA3 240326Z 19011KT 18/16 A2993 RMK A01 T01780158  RH  088%=      5-min Rain = 0
KHA3 240327Z 19010KT 18/16 A2993 RMK A01 T01780158  RH  089%=      5-min Rain = 0
KHA3 240328Z 20010KT 18/16 A2993 RMK A01 T01780160  RH  089%=      5-min Rain = 0.01
KHA3 240329Z 20010KT 18/16 A2994 RMK A01 T01780159  RH  089%=      5-min Rain = 0
KHA3 240330Z 21011KT 18/16 A2994 RMK A01 T01780160  RH  090%=      5-min Rain = 0
KHA3 240331Z 21012KT 18/16 A2994 RMK A01 T01770162  RH  091%=      5-min Rain = 0.01
KHA3 240332Z 21012KT 18/16 A2995 RMK A01 T01780163  RH  091%=      5-min Rain = 0
KHA3 240333Z 21013KT 18/16 A2995 RMK A01 T01770164  RH  092%=      5-min Rain = 0
KHA3 240334Z 21013KT 18/16 A2995 RMK A01 T01770162  RH  091%=      5-min Rain = 0
KHA3 240335Z 21013KT 18/16 A2995 RMK A01 T01770162  RH  091%=      5-min Rain = 0.01
KHA3 240336Z 21012KT 18/16 A2995 RMK A01 T01770163  RH  091%=      5-min Rain = 0
KHA3 240337Z 20012KT 18/16 A2996 RMK A01 T01770162  RH  091%=      5-min Rain = 0
KHA3 240338Z 21013KT 18/16 A2996 RMK A01 T01770162  RH  091%=      5-min Rain = 0
KHA3 240339Z 20012KT 18/16 A2996 RMK A01 T01770162  RH  091%=      5-min Rain = 0.01
KHA3 240340Z 20012KT 18/16 A2996 RMK A01 T01770161  RH  090%=      5-min Rain = 0
KHA3 240341Z 20012KT 18/16 A2996 RMK A01 T01780161  RH  090%=      5-min Rain = 0
KHA3 240342Z 20011KT 18/16 A2996 RMK A01 T01780161  RH  090%=      5-min Rain = 0
KHA3 240343Z 20012KT 18/16 A2996 RMK A01 T01780162  RH  090%=      5-min Rain = 0
KHA3 240344Z 19012KT 18/16 A2996 RMK A01 T01780160  RH  089%=      5-min Rain = 0.01
KHA3 240345Z 19011KT 18/16 A2996 RMK A01 T01790159  RH  088%=      5-min Rain = 0
KHA3 240346Z 19011KT 18/16 A2996 RMK A01 T01800159  RH  088%=      5-min Rain = 0
KHA3 240347Z 18010KT 18/16 A2996 RMK A01 T01800159  RH  087%=      5-min Rain = 0
KHA3 240348Z 19011KT 18/16 A2996 RMK A01 T01810158  RH  086%=      5-min Rain = 0.01
KHA3 240349Z 19010KT 18/16 A2996 RMK A01 T01810159  RH  087%=      5-min Rain = 0
KHA3 240350Z 19012KT 18/16 A2996 RMK A01 T01810161  RH  088%=      5-min Rain = 0
KHA3 240351Z 20012KT 18/16 A2996 RMK A01 T01800160  RH  088%=      5-min Rain = 0
KHA3 240352Z 21012KT 18/16 A2996 RMK A01 T01800161  RH  089%=      5-min Rain = 0.01
KHA3 240353Z 21013KT 18/16 A2996 RMK A01 T01790161  RH  089%=      5-min Rain = 0
KHA3 240354Z 20012KT 18/16 A2996 RMK A01 T01790161  RH  089%=      5-min Rain = 0
KHA3 240355Z 21012KT 18/16 A2995 RMK A01 T01790161  RH  089%=      5-min Rain = 0.01
KHA3 240356Z 20011KT 18/16 A2995 RMK A01 T01790161  RH  089%=      5-min Rain = 0
KHA3 240357Z 20010KT 18/16 A2995 RMK A01 T01790161  RH  089%=      5-min Rain = 0
KHA3 240358Z 21011KT 18/16 A2995 RMK A01 T01790161  RH  089%=      5-min Rain = 0.01
KHA3 240359Z 21011KT 18/16 A2995 RMK A01 T01790160  RH  089%=      5-min Rain = 0
KHA3 240400Z 21011KT 18/16 A2995 RMK A01 T01790161  RH  089%=      5-min Rain = 0
KHA3 240401Z 21011KT 18/16 A2995 RMK A01 T01790161  RH  089%=      5-min Rain = 0.01
KHA3 240402Z 21010KT 18/16 A2995 RMK A01 T01790161  RH  089%=      5-min Rain = 0
KHA3 240403Z 21011KT 18/16 A2995 RMK A01 T01790161  RH  089%=      5-min Rain = 0
KHA3 240404Z 20011KT 18/16 A2995 RMK A01 T01790161  RH  089%=      5-min Rain = 0.01
KHA3 240405Z 20009KT 18/16 A2994 RMK A01 T01790161  RH  089%=      5-min Rain = 0
KHA3 240406Z 19008KT 18/16 A2994 RMK A01 T01780160  RH  089%=      5-min Rain = 0
KHA3 240407Z 19007KT 18/16 A2994 RMK A01 T01780160  RH  089%=      5-min Rain = 0.01
KHA3 240408Z 18005KT 18/16 A2993 RMK A01 T01780160  RH  089%=      5-min Rain = 0
KHA3 240409Z 17003KT 18/16 A2993 RMK A01 T01780160  RH  089%=      5-min Rain = 0
KHA3 240410Z 15002KT 18/16 A2992 RMK A01 T01780159  RH  089%=      5-min Rain = 0.01
KHA3 240411Z 03001KT 18/16 A2992 RMK A01 T01780159  RH  089%=      5-min Rain = 0
KHA3 240412Z 01004KT 18/16 A2991 RMK A01 T01770159  RH  089%=      5-min Rain = 0
KHA3 240413Z 36006KT 18/16 A299 RMK A01 T01770161  RH  090%=      5-min Rain = 0.01
KHA3 240414Z 35008KT 18/16 A299 RMK A01 T01760161  RH  091%=      5-min Rain = 0
KHA3 240415Z 35010KT 18/16 A2989 RMK A01 T01760158  RH  089%=      5-min Rain = 0.01
KHA3 240416Z 00012KT 18/16 A2988 RMK A01 T01770161  RH  090%=      5-min Rain = 0
KHA3 240417Z 01014KT 18/16 A2988 RMK A01 T01760161  RH  091%=      5-min Rain = 0
KHA3 240418Z 01018KT 18/16 A2986 RMK A01 T01750161  RH  092%=      5-min Rain = 0.01
KHA3 240419Z 01020KT 18/16 A2985 RMK A01 T01750160  RH  091%=      5-min Rain = 0
KHA3 240420Z 01022KT 18/16 A2984 RMK A01 T01760158  RH  089%=      5-min Rain = 0
KHA3 240421Z 01022KT 18/16 A2983 RMK A01 T01780156  RH  087%=      5-min Rain = 0
KHA3 240422Z 01021KT 18/15 A2983 RMK A01 T01810154  RH  084%=      5-min Rain = 0.01
KHA3 240423Z 01019KT 18/15 A2982 RMK A01 T01830152  RH  082%=      5-min Rain = 0
KHA3 240424Z 01019KT 19/15 A2983 RMK A01 T01850151  RH  081%=      5-min Rain = 0
KHA3 240425Z 01017KT 19/15 A2983 RMK A01 T01860150  RH  080%=      5-min Rain = 0
KHA3 240426Z 01017KT 19/15 A2983 RMK A01 T01870151  RH  079%=      5-min Rain = 0
KHA3 240427Z 00014KT 19/15 A2984 RMK A01 T01870150  RH  079%=      5-min Rain = 0
KHA3 240428Z 00013KT 19/15 A2984 RMK A01 T01880150  RH  079%=      5-min Rain = 0
KHA3 240429Z 00012KT 19/15 A2984 RMK A01 T01880150  RH  079%=      5-min Rain = 0
KHA3 240430Z 35011KT 19/15 A2984 RMK A01 T01890151  RH  078%=      5-min Rain = 0
KHA3 240431Z 35008KT 19/15 A2985 RMK A01 T01900151  RH  078%=      5-min Rain = 0
KHA3 240432Z 35006KT 19/15 A2985 RMK A01 T01900150  RH  078%=      5-min Rain = 0
KHA3 240433Z 34008KT 19/15 A2985 RMK A01 T01900148  RH  077%=      5-min Rain = 0
KHA3 240434Z 28004KT 19/15 A2985 RMK A01 T01920149  RH  076%=      5-min Rain = 0
KHA3 240435Z 21006KT 19/15 A2986 RMK A01 T01930149  RH  076%=      5-min Rain = 0
KHA3 240436Z 17007KT 19/15 A2986 RMK A01 T01930154  RH  078%=      5-min Rain = 0
KHA3 240437Z 17007KT 19/16 A2985 RMK A01 T01910157  RH  081%=      5-min Rain = 0
KHA3 240438Z 13006KT 19/15 A2985 RMK A01 T01880154  RH  081%=      5-min Rain = 0.01
KHA3 240439Z 11005KT 19/16 A2984 RMK A01 T01860155  RH  082%=      5-min Rain = 0
KHA3 240440Z 10005KT 18/16 A2984 RMK A01 T01840155  RH  083%=      5-min Rain = 0
KHA3 240441Z 09006KT 18/16 A2983 RMK A01 T01830155  RH  084%=      5-min Rain = 0
KHA3 240442Z 09007KT 18/15 A2983 RMK A01 T01830154  RH  084%=      5-min Rain = 0
KHA3 240443Z 09009KT 18/15 A2982 RMK A01 T01820154  RH  083%=      5-min Rain = 0
KHA3 240444Z 09009KT 18/15 A2981 RMK A01 T01830152  RH  082%=      5-min Rain = 0
KHA3 240445Z 07011KT 19/15 A2981 RMK A01 T01850151  RH  081%=      5-min Rain = 0
KHA3 240446Z 05012KT 19/16 A298 RMK A01 T01850157  RH  083%=      5-min Rain = 0
KHA3 240447Z 06013KT 18/15 A2979 RMK A01 T01830154  RH  083%=      5-min Rain = 0
KHA3 240448Z 06012KT 18/15 A2978 RMK A01 T01840148  RH  080%=      5-min Rain = 0
KHA3 240449Z 06019KT 19/15 A2977 RMK A01 T01880149  RH  078%=      5-min Rain = 0
KHA3 240450Z 07022G30KT 19/14 A2975 RMK A01 T01910141  RH  073%=      5-min Rain = 0
KHA3 240451Z 07021G29KT 20/14 A2974 RMK A01 T01990135  RH  067%=      5-min Rain = 0
KHA3 240452Z 06018KT 20/14 A2974 RMK A01 T02030138  RH  066%=      5-min Rain = 0
KHA3 240453Z 07020KT 20/14 A2974 RMK A01 T02010144  RH  069%=      5-min Rain = 0
KHA3 240454Z 06015KT 20/15 A2974 RMK A01 T01960149  RH  074%=      5-min Rain = 0
KHA3 240455Z 07018KT 19/15 A2974 RMK A01 T01900149  RH  077%=      5-min Rain = 0
KHA3 240456Z 07020KT 19/15 A2974 RMK A01 T01900146  RH  075%=      5-min Rain = 0
KHA3 240457Z 08019KT 19/15 A2974 RMK A01 T01910149  RH  076%=      5-min Rain = 0
KHA3 240458Z 08017KT 19/15 A2974 RMK A01 T01890151  RH  079%=      5-min Rain = 0
KHA3 240459Z 07018KT 19/15 A2974 RMK A01 T01880146  RH  076%=      5-min Rain = 0

Page generated in 0.0971 seconds.